
Distance (Route):
Temperature : -7.0°C
Humidity : 82.5%
Pressure : 581.9hPa| Receiver | Frames | First received | Last received |
|---|---|---|---|
| PETON7-10 | 276 | 2026-09-03 11:37:02 | 2026-09-03 12:50:53 |
| ATIDSZ-14 | 146 | 2026-09-03 11:26:32 | 2026-09-03 12:27:43 |
| GYPAP8-17 | 85 | 2026-09-03 11:32:07 | 2026-09-03 13:06:53 |
| OM5KV | 55 | 2026-09-03 11:22:12 | 2026-09-03 11:28:18 |
| OE5DRO-10 | 39 | 2026-09-03 12:29:12 | 2026-09-03 12:50:14 |
| OE3JTB-15 | 23 | 2026-09-03 11:37:06 | 2026-09-03 12:50:55 |
| OE5DXL-15 | 12 | 2026-09-03 12:27:24 | 2026-09-03 12:38:13 |
| 9A1FER-10 | 7 | 2026-09-03 11:56:34 | 2026-09-03 12:16:45 |
| LZ4TU-5 | 6 | 2026-09-03 12:09:39 | 2026-09-03 12:39:26 |
| SQ9EZE-14 | 1 | 2026-09-03 12:49:33 | 2026-09-03 12:49:33 |
| Receiver | Date | Latitude | Longitude | Direction | Speed | Altitude | Climb | Temperature | Humidity | Pressure | Voltage | Killtimer | Uptime | BKT | XDATA |
|---|---|---|---|---|---|---|---|---|---|---|---|---|---|---|---|
| GYPAP8-17 | 2026-09-03 13:06:53 | -17.97013 | -74.25384 | 0° | 0km/h | 22m | 0.0m/s | -7.0°C | 82.5% | 581.9hPa | 2.7V | 00:00:00 | 00:00:00 | 00:00:00 | |
| GYPAP8-17 | 2026-09-03 13:05:42 | -17.97013 | -74.25384 | 0° | 0km/h | 22m | 0.0m/s | -14.7°C | 72.7% | 508.3hPa | 2.7V | 00:00:00 | 00:00:00 | 00:00:00 | |
| GYPAP8-17 | 2026-09-03 13:04:40 | -17.97013 | -74.25384 | 0° | 0km/h | 22m | 0.0m/s | -18.3°C | 28.0% | 449.9hPa | 2.7V | 00:00:00 | 00:00:00 | 00:00:00 | |
| GYPAP8-17 | 2026-09-03 13:03:21 | -17.97013 | -74.25384 | 0° | 0km/h | 22m | 0.0m/s | -28.8°C | 35.7% | 380.7hPa | 2.7V | 00:00:00 | 00:00:00 | 00:00:00 | |
| GYPAP8-17 | 2026-09-03 13:02:14 | -17.97013 | -74.25384 | 0° | 0km/h | 22m | 0.0m/s | -36.6°C | 19.1% | 326.9hPa | 2.7V | 00:00:00 | 00:00:00 | 00:00:00 | |
| GYPAP8-17 | 2026-09-03 13:01:15 | -17.97013 | -74.25384 | 0° | 0km/h | 22m | 0.0m/s | -44.8°C | 60.4% | 279.8hPa | 2.7V | 00:00:00 | 00:00:00 | 00:00:00 | |
| GYPAP8-17 | 2026-09-03 13:00:06 | -17.97013 | -74.25384 | 0° | 0km/h | 22m | 0.0m/s | -54.9°C | 30.9% | 230.3hPa | 2.7V | 00:00:00 | 00:00:00 | 00:00:00 | |
| GYPAP8-17 | 2026-09-03 12:58:22 | -17.97013 | -74.25384 | 0° | 0km/h | 22m | 0.0m/s | -52.0°C | 1.0% | 164.6hPa | 2.7V | 00:00:00 | 00:00:00 | 00:00:00 | |
| GYPAP8-17 | 2026-09-03 12:57:16 | -16.67323 | -76.39227 | 0° | 0km/h | 16m | 0.0m/s | -54.9°C | 0.6% | 130.1hPa | 2.7V | 00:00:00 | 00:00:00 | 00:00:00 | |
| GYPAP8-17 | 2026-09-03 12:56:10 | -12.03675 | -77.06038 | 0° | 0km/h | 1028m | 0.0m/s | -53.0°C | 0.3% | 101.6hPa | 2.7V | 00:00:00 | 00:00:00 | 00:00:00 | |
| GYPAP8-17 | 2026-09-03 12:55:08 | -12.03675 | -77.06038 | 0° | 0km/h | 1028m | 0.0m/s | -54.1°C | 0.2% | 79.2hPa | 2.7V | 00:00:00 | 00:00:00 | 00:00:00 | |
| GYPAP8-17 | 2026-09-03 12:53:40 | -12.03675 | -77.06038 | 0° | 0km/h | 1028m | 0.0m/s | -53.3°C | 0.1% | 54.2hPa | 2.7V | 00:00:00 | 00:00:00 | 00:00:00 | |
| GYPAP8-17 | 2026-09-03 12:52:28 | -12.03675 | -77.06038 | 0° | 0km/h | 1028m | 0.0m/s | -52.0°C | 0.1% | 38.6hPa | 2.7V | 00:00:00 | 00:00:00 | 00:00:00 | |
| GYPAP8-17 | 2026-09-03 12:51:13 | -12.03675 | -77.06038 | 0° | 0km/h | 1028m | 0.0m/s | -49.9°C | 0% | 26.3hPa | 2.7V | 00:00:00 | 00:00:00 | 00:00:00 | |
| OE3JTB-15 | 2026-09-03 12:50:55 | -12.04584 | -77.05594 | 315° | 199km/h | 991m | -0.4m/s | -48.7°C | 2.6% | 23.5hPa | 2.7V | 00:00:00 | 01:56:04 | 00:00:00 | |
| PETON7-10 | 2026-09-03 12:50:53 | -12.04584 | -77.05594 | 315° | 199km/h | 991m | -0.4m/s | -48.7°C | 2.6% | 23.5hPa | 2.7V | 00:00:00 | 00:00:00 | 08:30:00 | |
| PETON7-10 | 2026-09-03 12:50:46 | -12.04775 | -77.05293 | 292° | 199km/h | 991m | -0.4m/s | -47.3°C | 2.3% | 22.5hPa | 2.6V | 00:00:00 | 00:00:00 | 00:00:00 | |
| OE3JTB-15 | 2026-09-03 12:50:41 | -12.04839 | -77.04941 | 270° | 199km/h | 991m | -0.4m/s | -46.4°C | 2.2% | 21.7hPa | 2.6V | 00:00:00 | 00:00:00 | 00:00:00 | |
| PETON7-10 | 2026-09-03 12:50:39 | -12.04839 | -77.04941 | 270° | 199km/h | 991m | -0.4m/s | -46.4°C | 2.2% | 21.7hPa | 2.7V | 00:00:00 | 01:55:50 | 00:00:00 | |
| OE3JTB-15 | 2026-09-03 12:50:36 | -12.04799 | -77.04689 | 253° | 199km/h | 992m | -0.4m/s | -45.8°C | 2.0% | 20.9hPa | 2.7V | 00:00:00 | 00:00:00 | 00:00:00 | |
| PETON7-10 | 2026-09-03 12:50:34 | -12.04799 | -77.04689 | 253° | 199km/h | 992m | -0.4m/s | -45.8°C | 2.0% | 20.9hPa | 2.7V | 00:00:00 | 00:00:00 | 00:00:00 | |
| PETON7-10 | 2026-09-03 12:50:33 | -12.04783 | -77.04640 | 251° | 199km/h | 992m | -0.7m/s | -45.8°C | 2.0% | 20.9hPa | 2.6V | 00:00:00 | 00:00:00 | 00:00:00 | |
| PETON7-10 | 2026-09-03 12:50:29 | -12.04692 | -77.04457 | 237° | 199km/h | 991m | 0.4m/s | -46.3°C | 2.2% | 20.4hPa | 2.6V | 00:00:00 | 01:55:40 | 00:00:00 | |
| OE5DRO-10 | 2026-09-03 12:50:14 | -12.04074 | -77.04050 | 190° | 199km/h | 989m | -0.4m/s | -46.3°C | 2.3% | 18.6hPa | 2.6V | 00:00:00 | 00:00:00 | 00:00:00 | |
| PETON7-10 | 2026-09-03 12:50:14 | -12.04074 | -77.04050 | 190° | 199km/h | 989m | -0.4m/s | -46.3°C | 2.3% | 18.6hPa | 2.6V | 00:00:00 | 00:00:00 | 00:00:00 | |
| OE5DRO-10 | 2026-09-03 12:50:12 | -12.03973 | -77.04040 | 183° | 199km/h | 989m | -0.4m/s | -46.3°C | 2.3% | 18.3hPa | 2.7V | 00:00:00 | 00:00:00 | 00:00:00 | |
| PETON7-10 | 2026-09-03 12:50:12 | -12.03973 | -77.04040 | 183° | 199km/h | 989m | -0.4m/s | -46.3°C | 2.3% | 18.3hPa | 2.7V | 00:00:00 | 00:00:00 | 00:00:00 | |
| PETON7-10 | 2026-09-03 12:50:04 | -12.03578 | -77.04114 | 157° | 199km/h | 989m | -0.4m/s | -45.3°C | 2.2% | 17.5hPa | 2.7V | 00:00:00 | 01:55:15 | 00:00:00 | |
| OE5DRO-10 | 2026-09-03 12:50:01 | -12.03444 | -77.04186 | 147° | 199km/h | 991m | -0.4m/s | -44.4°C | 1.9% | 17.2hPa | 2.7V | 00:00:00 | 00:00:00 | 00:00:00 | |
| PETON7-10 | 2026-09-03 12:50:01 | -12.03444 | -77.04186 | 147° | 199km/h | 991m | -0.4m/s | -44.4°C | 1.9% | 17.2hPa | 2.7V | 00:00:00 | 00:00:00 | 00:00:00 | |
| GYPAP8-17 | 2026-09-03 12:50:00 | -12.03444 | -77.04186 | 148° | 197km/h | 991m | -0.4m/s | -44.4°C | 0% | 17.3hPa | 2.7V | 00:00:00 | 00:00:00 | 00:00:00 | |
| PETON7-10 | 2026-09-03 12:49:56 | -12.03253 | -77.04354 | 131° | 199km/h | 991m | -1.2m/s | -44.2°C | 2.0% | 16.7hPa | 2.7V | 00:00:00 | 01:55:07 | 00:00:00 | |
| PETON7-10 | 2026-09-03 12:49:52 | -12.03139 | -77.04523 | 119° | 199km/h | 992m | -0.9m/s | -43.9°C | 2.0% | 16.3hPa | 2.7V | 00:00:00 | 00:00:00 | 00:00:00 | |
| PETON7-10 | 2026-09-03 12:49:49 | -12.03078 | -77.04664 | 109° | 199km/h | 992m | -0.1m/s | -43.9°C | 2.0% | 15.9hPa | 2.7V | 00:00:00 | 00:00:00 | 00:00:00 | |
| PETON7-10 | 2026-09-03 12:49:34 | -12.03148 | -77.05410 | 61° | 199km/h | 990m | -0.4m/s | -42.4°C | 1.8% | 14.5hPa | 2.7V | 00:00:00 | 01:54:45 | 00:00:00 | |
| SQ9EZE-14 | 2026-09-03 12:49:33 | -12.03148 | -77.05410 | 61° | 201km/h | 990m | -0.5m/s | 0°C | 0% | 0hPa | 2.7V | 00:00:00 | 00:00:00 | 00:00:00 | |
| PETON7-10 | 2026-09-03 12:49:29 | -12.03301 | -77.05613 | 45° | 199km/h | 991m | -1.0m/s | -42.2°C | 1.7% | 14.0hPa | 2.7V | 00:00:00 | 00:00:00 | 00:00:00 | |
| PETON7-10 | 2026-09-03 12:49:25 | -12.03460 | -77.05739 | 32° | 199km/h | 991m | -0.7m/s | -42.1°C | 1.7% | 13.6hPa | 2.7V | 00:00:00 | 00:00:00 | 00:00:00 | |
| PETON7-10 | 2026-09-03 12:49:24 | -12.03504 | -77.05764 | 29° | 199km/h | 991m | -0.5m/s | -42.1°C | 1.7% | 13.5hPa | 2.7V | 00:00:00 | 01:54:35 | 00:00:00 | |
| OE5DRO-10 | 2026-09-03 12:49:18 | -12.03790 | -77.05863 | 10° | 199km/h | 989m | -0.4m/s | -42.1°C | 1.8% | 13.0hPa | 2.7V | 00:00:00 | 00:00:00 | 08:30:00 | |
| PETON7-10 | 2026-09-03 12:49:18 | -12.03790 | -77.05863 | 10° | 199km/h | 989m | -0.4m/s | -42.1°C | 1.8% | 13.0hPa | 2.7V | 00:00:00 | 00:00:00 | 08:30:00 | |
| OE3JTB-15 | 2026-09-03 12:49:10 | -12.04286 | -77.05802 | 337° | 199km/h | 990m | -1.2m/s | -41.5°C | 1.8% | 12.0hPa | 2.7V | 00:00:00 | 01:54:19 | 00:00:00 | |
| OE5DRO-10 | 2026-09-03 12:49:08 | -12.04286 | -77.05802 | 337° | 199km/h | 990m | -1.2m/s | -41.5°C | 1.8% | 12.0hPa | 2.7V | 00:00:00 | 00:00:00 | 00:00:00 | |
| PETON7-10 | 2026-09-03 12:49:08 | -12.04286 | -77.05802 | 337° | 199km/h | 990m | -1.2m/s | -41.5°C | 1.8% | 12.0hPa | 2.7V | 00:00:00 | 00:00:00 | 00:00:00 | |
| OE3JTB-15 | 2026-09-03 12:49:05 | -12.04502 | -77.05670 | 321° | 199km/h | 990m | -1.4m/s | -40.8°C | 1.7% | 11.6hPa | 2.7V | 00:00:00 | 00:00:00 | 08:30:00 | |
| OE5DRO-10 | 2026-09-03 12:49:03 | -12.04502 | -77.05670 | 321° | 199km/h | 990m | -1.4m/s | -40.8°C | 1.7% | 11.6hPa | 2.6V | 00:00:00 | 00:00:00 | 00:00:00 | |
| PETON7-10 | 2026-09-03 12:49:03 | -12.04502 | -77.05670 | 321° | 199km/h | 990m | -1.4m/s | -40.8°C | 1.7% | 11.6hPa | 2.6V | 00:00:00 | 01:54:14 | 00:00:00 | |
| OE5DRO-10 | 2026-09-03 12:49:01 | -12.04577 | -77.05601 | 315° | 199km/h | 991m | -0.4m/s | -40.1°C | 1.6% | 11.4hPa | 2.6V | 00:00:00 | 00:00:00 | 00:00:00 | |
| PETON7-10 | 2026-09-03 12:49:01 | -12.04577 | -77.05601 | 315° | 199km/h | 991m | -0.4m/s | -40.1°C | 1.6% | 11.4hPa | 2.6V | 00:00:00 | 00:00:00 | 00:00:00 | |
| OE3JTB-15 | 2026-09-03 12:48:55 | -12.04789 | -77.05254 | 289° | 199km/h | 990m | 0.1m/s | -39.8°C | 1.6% | 10.7hPa | 2.6V | 00:00:00 | 01:54:04 | 00:00:00 | |
| GYPAP8-17 | 2026-09-03 12:48:53 | -12.04771 | -77.05302 | 293° | 203km/h | 990m | 0.1m/s | -39.7°C | 0% | 10.8hPa | 2.6V | 00:00:00 | 00:00:00 | 00:00:00 | |
| OE5DRO-10 | 2026-09-03 12:48:48 | -12.04837 | -77.05002 | 273° | 199km/h | 989m | -0.8m/s | -39.8°C | 1.6% | 10.4hPa | 2.6V | 00:00:00 | 00:00:00 | 00:00:00 | |
| PETON7-10 | 2026-09-03 12:48:48 | -12.04837 | -77.05002 | 273° | 199km/h | 989m | -0.8m/s | -39.8°C | 1.6% | 10.4hPa | 2.6V | 00:00:00 | 00:00:00 | 00:00:00 | |
| OE5DRO-10 | 2026-09-03 12:48:40 | -12.04768 | -77.04601 | 248° | 199km/h | 991m | -0.6m/s | -38.7°C | 1.5% | 9.8hPa | 2.6V | 00:00:00 | 00:00:00 | 00:00:00 | |
| PETON7-10 | 2026-09-03 12:48:40 | -12.04768 | -77.04601 | 248° | 199km/h | 991m | -0.6m/s | -38.7°C | 1.5% | 9.8hPa | 2.6V | 00:00:00 | 01:53:51 | 00:00:00 | |
| OE5DRO-10 | 2026-09-03 12:48:37 | -12.04698 | -77.04464 | 238° | 199km/h | 991m | -1.1m/s | -38.5°C | 1.5% | 9.6hPa | 2.6V | 00:00:00 | 00:00:00 | 00:00:00 | |
| PETON7-10 | 2026-09-03 12:48:37 | -12.04698 | -77.04464 | 238° | 199km/h | 991m | -1.1m/s | -38.5°C | 1.5% | 9.6hPa | 2.6V | 00:00:00 | 00:00:00 | 00:00:00 | |
| OE5DRO-10 | 2026-09-03 12:48:28 | -12.04369 | -77.04151 | 209° | 199km/h | 990m | -0.5m/s | -38.0°C | 1.5% | 8.9hPa | 2.6V | 00:00:00 | 00:00:00 | 00:00:00 | |
| PETON7-10 | 2026-09-03 12:48:28 | -12.04369 | -77.04151 | 209° | 199km/h | 990m | -0.5m/s | -38.0°C | 1.5% | 8.9hPa | 2.6V | 00:00:00 | 00:00:00 | 00:00:00 | |
| OE5DRO-10 | 2026-09-03 12:48:26 | -12.04277 | -77.04107 | 203° | 199km/h | 991m | -0.5m/s | -38.0°C | 1.5% | 8.8hPa | 2.6V | 00:00:00 | 00:00:00 | 00:00:00 | |
| PETON7-10 | 2026-09-03 12:48:26 | -12.04277 | -77.04107 | 203° | 199km/h | 991m | -0.5m/s | -38.0°C | 1.5% | 8.8hPa | 2.6V | 00:00:00 | 01:53:37 | 00:00:00 | |
| PETON7-10 | 2026-09-03 12:48:18 | -12.03881 | -77.04041 | 177° | 199km/h | 989m | -0.4m/s | -36.9°C | 1.4% | 8.3hPa | 2.6V | 00:00:00 | 00:00:00 | 08:30:00 | |
| OE5DRO-10 | 2026-09-03 12:48:17 | -12.03831 | -77.04045 | 174° | 199km/h | 989m | -0.9m/s | -36.5°C | 1.3% | 8.2hPa | 2.7V | 00:00:00 | 00:00:00 | 08:30:00 | |
| PETON7-10 | 2026-09-03 12:48:17 | -12.03831 | -77.04045 | 174° | 197km/h | 989m | -0.9m/s | -36.5°C | 1.3% | 8.2hPa | 2.7V | 00:00:00 | 00:00:00 | 00:00:00 | |
| PETON7-10 | 2026-09-03 12:48:14 | -12.03683 | -77.04075 | 164° | 199km/h | 990m | -0.5m/s | -35.9°C | 1.3% | 8.0hPa | 2.7V | 00:00:00 | 01:53:25 | 00:00:00 | |
| PETON7-10 | 2026-09-03 12:48:10 | -12.03496 | -77.04154 | 151° | 199km/h | 991m | -0.4m/s | -34.8°C | 1.2% | 7.8hPa | 2.7V | 00:00:00 | 00:00:00 | 00:00:00 | |
| PETON7-10 | 2026-09-03 12:48:08 | -12.03411 | -77.04209 | 145° | 199km/h | 991m | -0.4m/s | -34.6°C | 1.1% | 7.7hPa | 2.7V | 00:00:00 | 00:00:00 | 00:00:00 | |
| PETON7-10 | 2026-09-03 12:47:58 | -12.03100 | -77.04606 | 113° | 199km/h | 992m | -0.0m/s | -35.2°C | 1.2% | 7.1hPa | 2.7V | 00:00:00 | 01:53:09 | 00:00:00 | |
| OE3JTB-15 | 2026-09-03 12:47:49 | -12.03054 | -77.05160 | 78° | 199km/h | 990m | -0.0m/s | -35.4°C | 1.2% | 7.1hPa | 2.7V | 00:00:00 | 00:00:00 | 00:00:00 | |
| PETON7-10 | 2026-09-03 12:47:43 | -12.03121 | -77.05354 | 65° | 199km/h | 990m | 0.3m/s | -35.3°C | 1.2% | 7.1hPa | 2.6V | 00:00:00 | 00:00:00 | 00:00:00 | |
| PETON7-10 | 2026-09-03 12:47:28 | -12.03683 | -77.05838 | 17° | 199km/h | 989m | 0.6m/s | -35.0°C | 1.2% | 7.2hPa | 2.7V | 00:00:00 | 00:00:00 | 00:00:00 | |
| GYPAP8-17 | 2026-09-03 12:47:23 | -12.03882 | -77.05873 | 4° | 199km/h | 989m | 0.1m/s | -35.1°C | 0% | 7.3hPa | 2.7V | 00:00:00 | 00:00:00 | 00:00:00 | |
| PETON7-10 | 2026-09-03 12:47:12 | -12.04454 | -77.05708 | 325° | 199km/h | 986m | -1.0m/s | -34.9°C | 1.2% | 7.3hPa | 2.7V | 00:00:00 | 01:52:23 | 00:00:00 | |
| PETON7-10 | 2026-09-03 12:47:09 | -12.04571 | -77.05609 | 316° | 199km/h | 986m | -0.8m/s | -34.9°C | 1.2% | 7.3hPa | 2.7V | 00:00:00 | 00:00:00 | 08:30:00 | |
| PETON7-10 | 2026-09-03 12:47:02 | -12.04767 | -77.05313 | 293° | 197km/h | 988m | -3.2m/s | -35.0°C | 1.1% | 7.4hPa | 2.7V | 00:00:00 | 00:00:00 | 00:00:00 | |
| PETON7-10 | 2026-09-03 12:47:00 | -12.04801 | -77.05216 | 287° | 199km/h | 990m | -1.0m/s | -35.0°C | 1.2% | 7.4hPa | 2.7V | 00:00:00 | 01:52:11 | 00:00:00 | |
| PETON7-10 | 2026-09-03 12:46:59 | -12.04814 | -77.05167 | 284° | 199km/h | 990m | -0.0m/s | -35.0°C | 1.2% | 7.4hPa | 2.7V | 00:00:00 | 00:00:00 | 00:00:00 | |
| OE3JTB-15 | 2026-09-03 12:46:53 | -12.04816 | -77.04759 | 258° | 69km/h | 989m | -0.0m/s | -35.1°C | 1.1% | 7.5hPa | 2.7V | 00:00:00 | 00:00:00 | 00:00:00 | |
| OE5DRO-10 | 2026-09-03 12:46:46 | -12.04728 | -77.04519 | 242° | 199km/h | 991m | -0.7m/s | -35.0°C | 1.2% | 7.5hPa | 2.7V | 00:00:00 | 00:00:00 | 00:00:00 | |
| OE5DRO-10 | 2026-09-03 12:46:44 | -12.04675 | -77.04431 | 235° | 199km/h | 991m | -0.5m/s | -35.0°C | 1.2% | 7.6hPa | 2.7V | 00:00:00 | 00:00:00 | 00:00:00 | |
| PETON7-10 | 2026-09-03 12:46:44 | -12.04675 | -77.04431 | 235° | 199km/h | 991m | -0.5m/s | -35.0°C | 1.2% | 7.6hPa | 2.7V | 00:00:00 | 00:00:00 | 00:00:00 | |
| OE5DRO-10 | 2026-09-03 12:46:33 | -12.04238 | -77.04095 | 200° | 199km/h | 990m | -0.6m/s | -35.2°C | 1.1% | 7.6hPa | 2.7V | 00:00:00 | 00:00:00 | 00:00:00 | |
| PETON7-10 | 2026-09-03 12:46:33 | -12.04238 | -77.04095 | 200° | 199km/h | 990m | -0.6m/s | -35.2°C | 1.1% | 7.6hPa | 2.6V | 00:00:00 | 01:51:44 | 00:00:00 | |
| OE5DRO-10 | 2026-09-03 12:46:31 | -12.04141 | -77.04066 | 194° | 197km/h | 989m | -1.3m/s | -35.4°C | 1.1% | 7.6hPa | 2.6V | 00:00:00 | 00:00:00 | 00:00:00 | |
| PETON7-10 | 2026-09-03 12:46:31 | -12.04141 | -77.04066 | 194° | 197km/h | 989m | -1.3m/s | -35.4°C | 1.1% | 7.6hPa | 2.6V | 00:00:00 | 00:00:00 | 00:00:00 | |
| PETON7-10 | 2026-09-03 12:46:30 | -12.04091 | -77.04055 | 191° | 199km/h | 989m | 0.0m/s | -35.5°C | 1.2% | 7.7hPa | 2.7V | 00:00:00 | 00:00:00 | 00:00:00 | |
| OE5DRO-10 | 2026-09-03 12:46:29 | -12.04041 | -77.04047 | 188° | 199km/h | 989m | 0.1m/s | -35.6°C | 1.2% | 7.6hPa | 2.7V | 00:00:00 | 00:00:00 | 00:00:00 | |
| PETON7-10 | 2026-09-03 12:46:15 | -12.03376 | -77.04236 | 143° | 199km/h | 992m | -0.5m/s | -36.3°C | 1.2% | 7.8hPa | 2.7V | 00:00:00 | 01:51:26 | 00:00:00 | |
| OE5DRO-10 | 2026-09-03 12:46:10 | -12.03200 | -77.04422 | 126° | 150km/h | 992m | -0.1m/s | -36.4°C | 1.2% | 7.8hPa | 2.7V | 00:00:00 | 00:00:00 | 00:00:00 | |
| GYPAP8-17 | 2026-09-03 12:46:08 | -12.03171 | -77.04465 | 124° | 199km/h | 992m | 0.1m/s | -36.6°C | 0% | 7.9hPa | 2.7V | 00:00:00 | 00:00:00 | 00:00:00 | |
| GYPAP8-17 | 2026-09-03 12:44:56 | -17.43301 | -51.77317 | 0° | 0km/h | 569m | 0.0m/s | -38.6°C | 0% | 8.5hPa | 2.7V | 00:00:00 | 00:00:00 | 00:00:00 | |
| GYPAP8-17 | 2026-09-03 12:43:50 | -10.68071 | -74.70729 | 0° | 0km/h | 782m | 0.0m/s | -39.3°C | 0% | 9.1hPa | 2.7V | 00:00:00 | 00:00:00 | 00:00:00 | |
| GYPAP8-17 | 2026-09-03 12:42:42 | 47.13444 | 19.71559 | 0° | 0km/h | 30329m | 0.0m/s | -39.5°C | 0% | 9.8hPa | 2.7V | 00:00:00 | 00:00:00 | 00:00:00 | |
| GYPAP8-17 | 2026-09-03 12:41:27 | 47.13444 | 19.71559 | 0° | 0km/h | 30329m | 0.0m/s | -40.0°C | 0% | 10.6hPa | 2.7V | 00:00:00 | 00:00:00 | 00:00:00 | |
| GYPAP8-17 | 2026-09-03 12:40:23 | 47.13444 | 19.71559 | 0° | 0km/h | 30329m | 0.0m/s | -41.4°C | 0% | 11.3hPa | 2.7V | 00:00:00 | 00:00:00 | 00:00:00 | |
| LZ4TU-5 | 2026-09-03 12:39:26 | 47.13444 | 19.71559 | 0° | 0km/h | 30329m | 0.0m/s | -41.9°C | 0% | 0hPa | 2.7V | 00:00:00 | 00:00:00 | 00:00:00 | |
| LZ4TU-5 | 2026-09-03 12:39:21 | 47.13444 | 19.71559 | 0° | 0km/h | 30329m | 0.0m/s | -42.2°C | 0% | 0hPa | 2.7V | 00:00:00 | 00:00:00 | 00:00:00 | |
| GYPAP8-17 | 2026-09-03 12:39:19 | 47.13444 | 19.71559 | 0° | 0km/h | 30329m | 0.0m/s | -42.2°C | 0% | 12.1hPa | 2.7V | 00:00:00 | 00:00:00 | 00:00:00 | |
| PETON7-10 | 2026-09-03 12:38:51 | 47.13327 | 19.71235 | 47° | 16km/h | 30182m | 8.5m/s | -42.5°C | 1.8% | 12.4hPa | 2.7V | 00:00:00 | 00:00:00 | 00:00:00 | |
| PETON7-10 | 2026-09-03 12:38:36 | 47.13305 | 19.71161 | 217° | 11km/h | 30072m | 3.5m/s | -42.5°C | 1.8% | 12.5hPa | 2.6V | 00:00:00 | 00:00:00 | 00:00:00 | |
| PETON7-10 | 2026-09-03 12:38:21 | 47.13280 | 19.71139 | 107° | 13km/h | 29975m | 6.3m/s | -42.3°C | 1.8% | 12.8hPa | 2.6V | 00:00:00 | 01:43:33 | 00:00:00 | |
| OE5DRO-10 | 2026-09-03 12:38:15 | 47.13271 | 19.71145 | 323° | 9km/h | 29932m | 8.9m/s | -42.3°C | 1.7% | 12.8hPa | 2.6V | 00:00:00 | 00:00:00 | 00:00:00 | |
| OE5DXL-15 | 2026-09-03 12:38:13 | 47.13259 | 19.71145 | 44° | 11km/h | 29905m | 10.1m/s | 0°C | 0% | 0hPa | 2.6V | 00:00:00 | 00:00:00 | 00:00:00 | |
| GYPAP8-17 | 2026-09-03 12:38:10 | 47.13259 | 19.71145 | 45° | 18km/h | 29905m | 10.2m/s | -42.3°C | 0% | 12.9hPa | 2.6V | 00:00:00 | 00:00:00 | 00:00:00 | |
| PETON7-10 | 2026-09-03 12:38:06 | 47.13249 | 19.71115 | 98° | 7km/h | 29869m | 5.1m/s | -42.3°C | 1.8% | 13.0hPa | 2.6V | 00:00:00 | 00:00:00 | 08:30:00 | |
| OE5DRO-10 | 2026-09-03 12:37:56 | 47.13247 | 19.71123 | 84° | 15km/h | 29799m | 8.0m/s | -42.8°C | 1.8% | 13.1hPa | 2.6V | 00:00:00 | 00:00:00 | 00:00:00 | |
| PETON7-10 | 2026-09-03 12:37:51 | 47.13247 | 19.71099 | 105° | 13km/h | 29765m | 5.3m/s | -43.0°C | 1.9% | 13.2hPa | 2.6V | 00:00:00 | 00:00:00 | 00:00:00 | |
| OE5DXL-15 | 2026-09-03 12:37:40 | 47.13271 | 19.71135 | 201° | 11km/h | 29687m | 5.7m/s | 0°C | 0% | 0hPa | 2.6V | 00:00:00 | 00:00:00 | 00:00:00 | |
| OE5DRO-10 | 2026-09-03 12:37:37 | 47.13274 | 19.71129 | 82° | 13km/h | 29664m | 6.5m/s | -42.6°C | 1.8% | 13.3hPa | 2.6V | 00:00:00 | 00:00:00 | 08:30:00 | |
| PETON7-10 | 2026-09-03 12:37:36 | 47.13273 | 19.71126 | 63° | 11km/h | 29657m | 6.2m/s | -42.7°C | 1.8% | 13.4hPa | 2.7V | 00:00:00 | 01:42:48 | 00:00:00 | |
| PETON7-10 | 2026-09-03 12:37:21 | 47.13302 | 19.71134 | 139° | 16km/h | 29554m | 7.2m/s | -42.7°C | 1.8% | 13.6hPa | 2.7V | 00:00:00 | 00:00:00 | 00:00:00 | |
| OE5DRO-10 | 2026-09-03 12:37:14 | 47.13329 | 19.71150 | 207° | 18km/h | 29506m | 8.9m/s | -42.7°C | 1.8% | 13.7hPa | 2.7V | 00:00:00 | 00:00:00 | 00:00:00 | |
| OE5DXL-15 | 2026-09-03 12:37:10 | 47.13345 | 19.71146 | 127° | 22km/h | 29467m | 9.7m/s | 0°C | 0% | 0hPa | 2.7V | 00:00:00 | 00:00:00 | 00:00:00 | |
| PETON7-10 | 2026-09-03 12:37:06 | 47.13352 | 19.71129 | 134° | 22km/h | 29445m | 7.4m/s | -42.5°C | 1.8% | 13.8hPa | 2.7V | 00:00:00 | 00:00:00 | 00:00:00 | |
| GYPAP8-17 | 2026-09-03 12:37:04 | 47.13356 | 19.71125 | 157° | 20km/h | 29437m | 8.7m/s | -42.6°C | 0% | 13.9hPa | 2.7V | 00:00:00 | 00:00:00 | 00:00:00 | |
| OE5DRO-10 | 2026-09-03 12:36:55 | 47.13407 | 19.71111 | 135° | 26km/h | 29363m | 8.1m/s | -42.3°C | 1.7% | 14.0hPa | 2.7V | 00:00:00 | 00:00:00 | 00:00:00 | |
| PETON7-10 | 2026-09-03 12:36:51 | 47.13423 | 19.71085 | 135° | 26km/h | 29332m | 9.2m/s | -42.4°C | 1.8% | 14.0hPa | 2.7V | 00:00:00 | 01:42:03 | 00:00:00 | |
| OE5DXL-15 | 2026-09-03 12:36:40 | 47.13475 | 19.71003 | 93° | 24km/h | 29240m | 4.5m/s | 0°C | 0% | 0hPa | 2.7V | 00:00:00 | 00:00:00 | 00:00:00 | |
| PETON7-10 | 2026-09-03 12:36:36 | 47.13477 | 19.70983 | 107° | 24km/h | 29226m | 8.5m/s | -43.0°C | 1.8% | 14.3hPa | 2.7V | 00:00:00 | 00:00:00 | 00:00:00 | |
| PETON7-10 | 2026-09-03 12:36:21 | 47.13519 | 19.70864 | 133° | 26km/h | 29117m | 6.3m/s | -43.1°C | 1.9% | 14.4hPa | 2.7V | 00:00:00 | 00:00:00 | 00:00:00 | |
| OE5DRO-10 | 2026-09-03 12:36:17 | 47.13540 | 19.70838 | 146° | 26km/h | 29079m | 9.4m/s | -43.1°C | 1.8% | 14.5hPa | 2.7V | 00:00:00 | 00:00:00 | 00:00:00 | |
| OE5DXL-15 | 2026-09-03 12:36:10 | 47.13567 | 19.70766 | 98° | 26km/h | 29021m | 6.8m/s | 0°C | 0% | 0hPa | 2.7V | 00:00:00 | 00:00:00 | 08:30:00 | |
| PETON7-10 | 2026-09-03 12:36:06 | 47.13568 | 19.70746 | 91° | 26km/h | 29007m | 8.4m/s | -43.0°C | 1.8% | 14.7hPa | 2.7V | 00:00:00 | 01:41:18 | 00:00:00 | |
| GYPAP8-17 | 2026-09-03 12:36:01 | 47.13570 | 19.70716 | 93° | 16km/h | 28978m | 7.5m/s | -43.2°C | 0% | 14.9hPa | 2.7V | 00:00:00 | 00:00:00 | 00:00:00 | |
| OE5DRO-10 | 2026-09-03 12:35:58 | 47.13573 | 19.70663 | 92° | 27km/h | 28935m | 8.2m/s | -43.1°C | 1.8% | 14.9hPa | 2.7V | 00:00:00 | 00:00:00 | 00:00:00 | |
| PETON7-10 | 2026-09-03 12:35:51 | 47.13568 | 19.70616 | 62° | 22km/h | 28901m | 8.0m/s | -43.1°C | 1.9% | 15.0hPa | 2.7V | 00:00:00 | 00:00:00 | 08:30:00 | |
| OE5DRO-10 | 2026-09-03 12:35:38 | 47.13561 | 19.70512 | 88° | 24km/h | 28807m | 5.9m/s | -43.6°C | 1.9% | 15.2hPa | 2.6V | 00:00:00 | 00:00:00 | 00:00:00 | |
| PETON7-10 | 2026-09-03 12:35:36 | 47.13558 | 19.70495 | 68° | 22km/h | 28792m | 9.1m/s | -43.7°C | 1.9% | 15.2hPa | 2.6V | 00:00:00 | 00:00:00 | 00:00:00 | |
| PETON7-10 | 2026-09-03 12:35:06 | 47.13529 | 19.70302 | 50° | 13km/h | 28587m | 8.1m/s | -43.8°C | 1.9% | 15.7hPa | 2.6V | 00:00:00 | 00:00:00 | 00:00:00 | |
| OE5DXL-15 | 2026-09-03 12:35:04 | 47.13525 | 19.70292 | 83° | 13km/h | 28566m | 9.0m/s | 0°C | 0% | 0hPa | 2.6V | 00:00:00 | 00:00:00 | 00:00:00 | |
| GYPAP8-17 | 2026-09-03 12:34:57 | 47.13521 | 19.70276 | 117° | 5km/h | 28531m | 6.6m/s | -43.7°C | 0% | 15.9hPa | 2.6V | 00:00:00 | 00:00:00 | 00:00:00 | |
| PETON7-10 | 2026-09-03 12:34:51 | 47.13516 | 19.70242 | 72° | 15km/h | 28481m | 6.7m/s | -43.6°C | 1.9% | 16.0hPa | 2.6V | 00:00:00 | 00:00:00 | 00:00:00 | |
| OE5DXL-15 | 2026-09-03 12:34:33 | 47.13510 | 19.70146 | 129° | 18km/h | 28348m | 6.0m/s | 0°C | 0% | 0hPa | 2.6V | 00:00:00 | 00:00:00 | 00:00:00 | |
| OE5DRO-10 | 2026-09-03 12:34:31 | 47.13517 | 19.70133 | 124° | 20km/h | 28333m | 7.7m/s | -44.1°C | 2.0% | 16.3hPa | 2.6V | 00:00:00 | 00:00:00 | 00:00:00 | |
| PETON7-10 | 2026-09-03 12:34:21 | 47.13538 | 19.70084 | 101° | 16km/h | 28278m | 5.7m/s | -44.1°C | 2.0% | 16.4hPa | 2.6V | 00:00:00 | 00:00:00 | 00:00:00 | |
| PETON7-10 | 2026-09-03 12:34:06 | 47.13576 | 19.70014 | 132° | 18km/h | 28174m | 8.5m/s | -44.2°C | 1.9% | 16.7hPa | 2.7V | 00:00:00 | 00:00:00 | 00:00:00 | |
| OE5DRO-10 | 2026-09-03 12:34:04 | 47.13585 | 19.70003 | 145° | 15km/h | 28159m | 5.3m/s | 0°C | 0% | 0hPa | 2.7V | 00:00:00 | 00:00:00 | 00:00:00 | |
| OE5DXL-15 | 2026-09-03 12:34:03 | 47.13593 | 19.69992 | 129° | 27km/h | 28149m | 5.5m/s | 0°C | 0% | 0hPa | 2.7V | 00:00:00 | 00:00:00 | 00:00:00 | |
| GYPAP8-17 | 2026-09-03 12:33:55 | 47.13598 | 19.69963 | 99° | 18km/h | 28105m | 8.1m/s | -44.4°C | 0% | 16.9hPa | 2.7V | 00:00:00 | 00:00:00 | 00:00:00 | |
| PETON7-10 | 2026-09-03 12:33:51 | 47.13607 | 19.69928 | 144° | 20km/h | 28069m | 6.7m/s | -44.3°C | 1.9% | 17.0hPa | 2.7V | 00:00:00 | 01:39:03 | 00:00:00 | |
| OE5DRO-10 | 2026-09-03 12:33:45 | 47.13634 | 19.69891 | 127° | 33km/h | 28030m | 5.4m/s | 0°C | 0% | 0hPa | 2.7V | 00:00:00 | 00:00:00 | 08:30:00 | |
| PETON7-10 | 2026-09-03 12:33:36 | 47.13651 | 19.69837 | 117° | 35km/h | 27964m | 8.8m/s | -45.3°C | 2.1% | 17.2hPa | 2.7V | 00:00:00 | 00:00:00 | 08:30:00 | |
| PETON7-10 | 2026-09-03 12:33:21 | 47.13712 | 19.69672 | 111° | 33km/h | 27858m | 7.0m/s | -45.2°C | 2.0% | 17.5hPa | 2.7V | 00:00:00 | 00:00:00 | 00:00:00 | |
| OE5DRO-10 | 2026-09-03 12:33:19 | 47.13720 | 19.69647 | 119° | 29km/h | 27844m | 7.7m/s | 0°C | 0% | 0hPa | 2.7V | 00:00:00 | 00:00:00 | 00:00:00 | |
| PETON7-10 | 2026-09-03 12:33:06 | 47.13764 | 19.69507 | 101° | 29km/h | 27758m | 6.2m/s | -45.8°C | 2.1% | 17.8hPa | 2.7V | 00:00:00 | 01:38:18 | 00:00:00 | |
| OE5DRO-10 | 2026-09-03 12:33:00 | 47.13779 | 19.69466 | 122° | 26km/h | 27718m | 6.7m/s | 0°C | 0% | 0hPa | 2.7V | 00:00:00 | 00:00:00 | 00:00:00 | |
| PETON7-10 | 2026-09-03 12:32:51 | 47.13799 | 19.69367 | 94° | 27km/h | 27656m | 7.0m/s | -46.0°C | 2.1% | 18.1hPa | 2.7V | 00:00:00 | 00:00:00 | 00:00:00 | |
| OE5DRO-10 | 2026-09-03 12:32:41 | 47.13818 | 19.69264 | 109° | 27km/h | 27589m | 5.3m/s | 0°C | 0% | 0hPa | 2.7V | 00:00:00 | 00:00:00 | 00:00:00 | |
| PETON7-10 | 2026-09-03 12:32:36 | 47.13825 | 19.69213 | 91° | 24km/h | 27554m | 9.5m/s | -46.4°C | 2.2% | 18.3hPa | 2.7V | 00:00:00 | 00:00:00 | 00:00:00 | |
| OE5DRO-10 | 2026-09-03 12:32:22 | 47.13834 | 19.69097 | 101° | 24km/h | 27464m | 5.6m/s | 0°C | 0% | 0hPa | 2.7V | 00:00:00 | 00:00:00 | 00:00:00 | |
| PETON7-10 | 2026-09-03 12:32:21 | 47.13834 | 19.69090 | 101° | 22km/h | 27457m | 9.3m/s | -46.7°C | 2.2% | 18.6hPa | 2.7V | 00:00:00 | 01:37:33 | 00:00:00 | |
| PETON7-10 | 2026-09-03 12:32:06 | 47.13837 | 19.68976 | 146° | 18km/h | 27357m | 7.5m/s | -47.0°C | 2.3% | 18.9hPa | 2.7V | 00:00:00 | 00:00:00 | 00:00:00 | |
| OE5DRO-10 | 2026-09-03 12:32:03 | 47.13850 | 19.68962 | 131° | 18km/h | 27339m | 8.7m/s | 0°C | 0% | 0hPa | 2.6V | 00:00:00 | 00:00:00 | 00:00:00 | |
| GYPAP8-17 | 2026-09-03 12:31:51 | 47.13848 | 19.68896 | 111° | 18km/h | 27265m | 4.5m/s | -47.0°C | 0% | 19.2hPa | 2.6V | 00:00:00 | 00:00:00 | 00:00:00 | |
| PETON7-10 | 2026-09-03 12:31:36 | 47.13848 | 19.68743 | 77° | 27km/h | 27161m | 8.0m/s | -46.6°C | 2.2% | 19.4hPa | 2.6V | 00:00:00 | 01:36:48 | 00:00:00 | |
| PETON7-10 | 2026-09-03 12:31:20 | 47.13820 | 19.68593 | 64° | 26km/h | 27056m | 7.0m/s | -46.3°C | 2.1% | 19.8hPa | 2.6V | 00:00:00 | 00:00:00 | 08:30:00 | |
| PETON7-10 | 2026-09-03 12:31:05 | 47.13775 | 19.68474 | 69° | 22km/h | 26955m | 4.9m/s | -46.7°C | 2.3% | 20.1hPa | 2.6V | 00:00:00 | 00:00:00 | 00:00:00 | |
| PETON7-10 | 2026-09-03 12:30:50 | 47.13724 | 19.68381 | 79° | 13km/h | 26854m | 6.1m/s | -46.3°C | 2.1% | 20.4hPa | 2.6V | 00:00:00 | 01:36:02 | 00:00:00 | |
| GYPAP8-17 | 2026-09-03 12:30:45 | 47.13722 | 19.68364 | 86° | 11km/h | 26828m | 7.6m/s | -46.3°C | 0% | 20.5hPa | 2.6V | 00:00:00 | 00:00:00 | 00:00:00 | |
| PETON7-10 | 2026-09-03 12:30:35 | 47.13693 | 19.68336 | 74° | 11km/h | 26757m | 7.7m/s | -46.6°C | 2.2% | 20.7hPa | 2.6V | 00:00:00 | 00:00:00 | 00:00:00 | |
| PETON7-10 | 2026-09-03 12:30:20 | 47.13685 | 19.68303 | 41° | 15km/h | 26655m | 7.1m/s | -46.9°C | 2.2% | 21.0hPa | 2.6V | 00:00:00 | 00:00:00 | 00:00:00 | |
| OE5DRO-10 | 2026-09-03 12:30:11 | 47.13664 | 19.68251 | 37° | 15km/h | 26576m | 6.3m/s | 0°C | 0% | 0hPa | 2.6V | 00:00:00 | 00:00:00 | 00:00:00 | |
| PETON7-10 | 2026-09-03 12:30:05 | 47.13658 | 19.68240 | 91° | 15km/h | 26550m | 5.2m/s | -47.2°C | 2.2% | 21.3hPa | 2.6V | 00:00:00 | 01:35:17 | 00:00:00 | |
| OE5DXL-15 | 2026-09-03 12:29:55 | 47.13640 | 19.68173 | 79° | 15km/h | 26460m | 8.3m/s | 0°C | 0% | 0hPa | 2.6V | 00:00:00 | 00:00:00 | 00:00:00 | |
| OE5DRO-10 | 2026-09-03 12:29:52 | 47.13639 | 19.68166 | 76° | 26km/h | 26447m | 5.7m/s | 0°C | 0% | 0hPa | 2.6V | 00:00:00 | 00:00:00 | 00:00:00 | |
| PETON7-10 | 2026-09-03 12:29:50 | 47.13639 | 19.68166 | 76° | 20km/h | 26447m | 5.7m/s | -47.5°C | 2.3% | 21.7hPa | 2.6V | 00:00:00 | 00:00:00 | 00:00:00 | |
| GYPAP8-17 | 2026-09-03 12:29:42 | 47.13624 | 19.68106 | 76° | 20km/h | 26393m | 8.2m/s | -47.5°C | 0.0% | 21.9hPa | 2.7V | 00:00:00 | 00:00:00 | 00:00:00 | |
| PETON7-10 | 2026-09-03 12:29:35 | 47.13612 | 19.68066 | 36° | 22km/h | 26346m | 7.0m/s | -47.3°C | 2.3% | 22.0hPa | 2.7V | 00:00:00 | 00:00:00 | 00:00:00 | |
| OE5DRO-10 | 2026-09-03 12:29:32 | 47.13588 | 19.68040 | 42° | 26km/h | 26318m | 6.8m/s | 0°C | 0% | 0hPa | 2.7V | 00:00:00 | 00:00:00 | 00:00:00 | |
| PETON7-10 | 2026-09-03 12:29:20 | 47.13556 | 19.67981 | 10° | 29km/h | 26241m | 9.5m/s | -47.3°C | 2.3% | 22.4hPa | 2.7V | 00:00:00 | 01:34:32 | 00:00:00 | |
| OE5DRO-10 | 2026-09-03 12:29:12 | 47.13499 | 19.67916 | 38° | 20km/h | 26183m | 5.0m/s | 0°C | 0% | 0hPa | 2.7V | 00:00:00 | 00:00:00 | 00:00:00 | |
| PETON7-10 | 2026-09-03 12:29:05 | 47.13466 | 19.67914 | 10° | 20km/h | 26141m | 6.8m/s | -47.9°C | 2.4% | 22.7hPa | 2.7V | 00:00:00 | 00:00:00 | 08:30:00 | |
| PETON7-10 | 2026-09-03 12:28:50 | 47.13405 | 19.67857 | 57° | 15km/h | 26039m | 4.5m/s | -47.7°C | 2.3% | 23.0hPa | 2.6V | 00:00:00 | 00:00:00 | 00:00:00 | |
| GYPAP8-17 | 2026-09-03 12:28:49 | 47.13405 | 19.67857 | 57° | 16km/h | 26039m | 4.6m/s | -47.8°C | 0.0% | 23.0hPa | 2.6V | 00:00:00 | 00:00:00 | 00:00:00 | |
| PETON7-10 | 2026-09-03 12:28:35 | 47.13371 | 19.67800 | 91° | 13km/h | 25938m | 8.4m/s | -48.0°C | 2.3% | 23.4hPa | 2.6V | 00:00:00 | 01:33:47 | 00:00:00 | |
| OE5DXL-15 | 2026-09-03 12:28:30 | 47.13364 | 19.67773 | 26° | 16km/h | 25892m | 7.4m/s | 0°C | 0% | 0hPa | 2.6V | 00:00:00 | 00:00:00 | 00:00:00 | |
| PETON7-10 | 2026-09-03 12:28:20 | 47.13348 | 19.67753 | 56° | 15km/h | 25841m | 7.6m/s | -48.2°C | 2.4% | 23.8hPa | 2.6V | 00:00:00 | 00:00:00 | 00:00:00 | |
| PETON7-10 | 2026-09-03 12:28:05 | 47.13314 | 19.67692 | 67° | 13km/h | 25744m | 5.3m/s | -48.2°C | 2.4% | 24.1hPa | 2.7V | 00:00:00 | 00:00:00 | 00:00:00 | |
| OE5DXL-15 | 2026-09-03 12:27:56 | 47.13293 | 19.67644 | 42° | 13km/h | 25663m | 8.4m/s | 0°C | 0% | 0hPa | 2.7V | 00:00:00 | 01:33:05 | 00:00:00 | |
| PETON7-10 | 2026-09-03 12:27:49 | 47.13290 | 19.67628 | 82° | 9km/h | 25636m | 9.0m/s | -48.8°C | 2.5% | 24.5hPa | 2.7V | 00:00:00 | 01:33:01 | 00:00:00 | |
| GYPAP8-17 | 2026-09-03 12:27:48 | 47.13290 | 19.67628 | 82° | 11km/h | 25636m | 9.1m/s | -48.9°C | 0.0% | 24.6hPa | 2.7V | 00:00:00 | 00:00:00 | 00:00:00 | |
| ATIDSZ-14 | 2026-09-03 12:27:43 | 47.13285 | 19.67604 | 78° | 16km/h | 25604m | 4.4m/s | -48.8°C | 0.0% | 24.7hPa | 2.7V | 00:00:00 | 00:00:00 | 00:00:00 | |
| PETON7-10 | 2026-09-03 12:27:34 | 47.13275 | 19.67588 | 22° | 15km/h | 25538m | 5.8m/s | -48.6°C | 2.5% | 24.9hPa | 2.7V | 00:00:00 | 00:00:00 | 00:00:00 | |
| OE5DXL-15 | 2026-09-03 12:27:24 | 47.13237 | 19.67560 | 46° | 13km/h | 25458m | 7.5m/s | 0°C | 0% | 0hPa | 2.7V | 00:00:00 | 00:00:00 | 00:00:00 | |
| PETON7-10 | 2026-09-03 12:27:19 | 47.13232 | 19.67552 | 61° | 15km/h | 25438m | 4.3m/s | -48.7°C | 2.4% | 25.2hPa | 2.7V | 00:00:00 | 00:00:00 | 00:00:00 | |
| ATIDSZ-14 | 2026-09-03 12:27:12 | 47.13208 | 19.67527 | 32° | 16km/h | 25396m | 6.5m/s | -48.9°C | 0.0% | 25.5hPa | 2.7V | 00:00:00 | 00:00:00 | 00:00:00 | |
| PETON7-10 | 2026-09-03 12:27:04 | 47.13190 | 19.67503 | 79° | 7km/h | 25336m | 8.2m/s | -49.2°C | 2.5% | 25.7hPa | 2.7V | 00:00:00 | 01:32:16 | 00:00:00 | |
| ATIDSZ-14 | 2026-09-03 12:26:51 | 47.13172 | 19.67496 | 320° | 4km/h | 25254m | 7.9m/s | -49.5°C | 0.0% | 26.1hPa | 2.7V | 00:00:00 | 00:00:00 | 00:00:00 | |
| PETON7-10 | 2026-09-03 12:26:49 | 47.13172 | 19.67495 | 106° | 7km/h | 25232m | 6.7m/s | -49.5°C | 2.5% | 26.1hPa | 2.7V | 00:00:00 | 00:00:00 | 08:30:00 | |
| GYPAP8-17 | 2026-09-03 12:26:41 | 47.13172 | 19.67485 | 298° | 4km/h | 25183m | 9.1m/s | -49.5°C | 0.0% | 26.4hPa | 2.6V | 00:00:00 | 00:00:00 | 00:00:00 | |
| PETON7-10 | 2026-09-03 12:26:34 | 47.13159 | 19.67487 | 20° | 9km/h | 25130m | 4.2m/s | -49.6°C | 2.6% | 26.5hPa | 2.6V | 00:00:00 | 00:00:00 | 00:00:00 | |
| ATIDSZ-14 | 2026-09-03 12:26:28 | 47.13150 | 19.67486 | 334° | 7km/h | 25098m | 6.8m/s | -49.7°C | 0.0% | 26.7hPa | 2.6V | 00:00:00 | 00:00:00 | 00:00:00 | |
| PETON7-10 | 2026-09-03 12:26:19 | 47.13126 | 19.67493 | 11° | 13km/h | 25030m | 5.7m/s | -49.8°C | 2.7% | 26.9hPa | 2.6V | 00:00:00 | 01:31:31 | 00:00:00 | |
| ATIDSZ-14 | 2026-09-03 12:26:08 | 47.13103 | 19.67523 | 334° | 13km/h | 24963m | 6.9m/s | -49.8°C | 0.1% | 27.2hPa | 2.6V | 00:00:00 | 00:00:00 | 00:00:00 | |
| PETON7-10 | 2026-09-03 12:26:04 | 47.13087 | 19.67521 | 12° | 13km/h | 24929m | 6.3m/s | -49.6°C | 2.6% | 27.3hPa | 2.6V | 00:00:00 | 00:00:00 | 00:00:00 | |
| PETON7-10 | 2026-09-03 12:25:48 | 47.13043 | 19.67547 | 33° | 16km/h | 24826m | 6.9m/s | -49.3°C | 2.5% | 27.7hPa | 2.6V | 00:00:00 | 00:00:00 | 00:00:00 | |
| ATIDSZ-14 | 2026-09-03 12:25:46 | 47.13040 | 19.67545 | 34° | 15km/h | 24820m | 5.6m/s | -49.4°C | 0.0% | 27.8hPa | 2.6V | 00:00:00 | 00:00:00 | 00:00:00 | |
| GYPAP8-17 | 2026-09-03 12:25:39 | 47.13014 | 19.67551 | 309° | 20km/h | 24774m | 6.6m/s | -49.5°C | 0.0% | 28.0hPa | 2.6V | 00:00:00 | 00:00:00 | 00:00:00 | |
| PETON7-10 | 2026-09-03 12:25:33 | 47.12997 | 19.67587 | 328° | 18km/h | 24728m | 5.5m/s | -49.7°C | 2.6% | 28.2hPa | 2.6V | 00:00:00 | 01:30:45 | 00:00:00 | |
| ATIDSZ-14 | 2026-09-03 12:25:23 | 47.12970 | 19.67625 | 286° | 20km/h | 24669m | 7.1m/s | -50.0°C | 0.0% | 28.5hPa | 2.6V | 00:00:00 | 00:00:00 | 00:00:00 | |
| PETON7-10 | 2026-09-03 12:25:18 | 47.12962 | 19.67663 | 313° | 16km/h | 24629m | 6.5m/s | -49.8°C | 2.6% | 28.6hPa | 2.6V | 00:00:00 | 00:00:00 | 00:00:00 | |
| PETON7-10 | 2026-09-03 12:25:03 | 47.12968 | 19.67750 | 240° | 15km/h | 24525m | 6.0m/s | -49.6°C | 2.6% | 29.1hPa | 2.7V | 00:00:00 | 00:00:00 | 00:00:00 | |
| ATIDSZ-14 | 2026-09-03 12:25:02 | 47.12968 | 19.67750 | 241° | 9km/h | 24525m | 6.1m/s | -49.7°C | 0.0% | 29.1hPa | 2.7V | 00:00:00 | 00:00:00 | 00:00:00 | |
| PETON7-10 | 2026-09-03 12:24:48 | 47.13006 | 19.67800 | 125° | 15km/h | 24425m | 7.0m/s | -49.8°C | 2.6% | 29.5hPa | 2.7V | 00:00:00 | 01:30:00 | 00:00:00 | |
| ATIDSZ-14 | 2026-09-03 12:24:42 | 47.13018 | 19.67775 | 136° | 22km/h | 24392m | 5.5m/s | -49.9°C | 0.1% | 29.7hPa | 2.7V | 00:00:00 | 00:00:00 | 00:00:00 | |
| GYPAP8-17 | 2026-09-03 12:24:37 | 47.13031 | 19.67766 | 213° | 13km/h | 24359m | 6.6m/s | -49.9°C | 0.0% | 29.9hPa | 2.7V | 00:00:00 | 00:00:00 | 00:00:00 | |
| PETON7-10 | 2026-09-03 12:24:33 | 47.13039 | 19.67784 | 237° | 13km/h | 24327m | 6.2m/s | -50.0°C | 2.6% | 30.0hPa | 2.7V | 00:00:00 | 00:00:00 | 08:30:00 | |
| ATIDSZ-14 | 2026-09-03 12:24:21 | 47.13067 | 19.67773 | 198° | 13km/h | 24257m | 7.6m/s | -50.2°C | 0.1% | 30.4hPa | 2.7V | 00:00:00 | 00:00:00 | 00:00:00 | |
| PETON7-10 | 2026-09-03 12:24:18 | 47.13082 | 19.67782 | 183° | 15km/h | 24231m | 5.9m/s | -50.3°C | 2.6% | 30.4hPa | 2.7V | 00:00:00 | 00:00:00 | 00:00:00 | |
| PETON7-10 | 2026-09-03 12:24:03 | 47.13121 | 19.67734 | 116° | 16km/h | 24133m | 5.2m/s | -50.5°C | 2.6% | 30.9hPa | 2.7V | 00:00:00 | 01:29:15 | 00:00:00 | |
| ATIDSZ-14 | 2026-09-03 12:24:01 | 47.13123 | 19.67729 | 115° | 18km/h | 24127m | 7.9m/s | -50.6°C | 0.1% | 30.9hPa | 2.7V | 00:00:00 | 00:00:00 | 00:00:00 | |
| PETON7-10 | 2026-09-03 12:23:48 | 47.13119 | 19.67655 | 46° | 16km/h | 24044m | 7.8m/s | -50.8°C | 2.6% | 31.3hPa | 2.7V | 00:00:00 | 00:00:00 | 00:00:00 | |
| ATIDSZ-14 | 2026-09-03 12:23:40 | 47.13108 | 19.67620 | 42° | 16km/h | 23999m | 5.4m/s | -51.1°C | 0.1% | 31.6hPa | 2.6V | 00:00:00 | 00:00:00 | 00:00:00 | |
| GYPAP8-17 | 2026-09-03 12:23:36 | 47.13087 | 19.67608 | 32° | 18km/h | 23968m | 5.2m/s | -51.3°C | 0.1% | 31.7hPa | 2.6V | 00:00:00 | 00:00:00 | 00:00:00 | |
| PETON7-10 | 2026-09-03 12:23:33 | 47.13076 | 19.67598 | 29° | 11km/h | 23949m | 7.3m/s | -51.4°C | 2.7% | 31.8hPa | 2.6V | 00:00:00 | 00:00:00 | 00:00:00 | |
| PETON7-10 | 2026-09-03 12:23:18 | 47.13060 | 19.67623 | 235° | 4km/h | 23856m | 6.3m/s | -51.7°C | 2.8% | 32.2hPa | 2.6V | 00:00:00 | 01:28:30 | 00:00:00 | |
| ATIDSZ-14 | 2026-09-03 12:23:17 | 47.13060 | 19.67623 | 236° | 5km/h | 23856m | 6.4m/s | -51.8°C | 0.1% | 32.2hPa | 2.6V | 00:00:00 | 00:00:00 | 00:00:00 | |
| PETON7-10 | 2026-09-03 12:23:03 | 47.13065 | 19.67611 | 112° | 9km/h | 23761m | 5.4m/s | -51.9°C | 2.8% | 32.7hPa | 2.6V | 00:00:00 | 00:00:00 | 00:00:00 | |
| ATIDSZ-14 | 2026-09-03 12:22:56 | 47.13068 | 19.67601 | 68° | 7km/h | 23722m | 5.4m/s | -52.1°C | 0.1% | 33.0hPa | 2.7V | 00:00:00 | 00:00:00 | 00:00:00 | |
| PETON7-10 | 2026-09-03 12:22:48 | 47.13060 | 19.67565 | 59° | 13km/h | 23665m | 8.1m/s | -52.4°C | 3.0% | 33.2hPa | 2.7V | 00:00:00 | 00:00:00 | 00:00:00 | |
| ATIDSZ-14 | 2026-09-03 12:22:36 | 47.13025 | 19.67581 | 359° | 20km/h | 23592m | 6.5m/s | -52.6°C | 0.1% | 33.6hPa | 2.7V | 00:00:00 | 00:00:00 | 00:00:00 | |
| PETON7-10 | 2026-09-03 12:22:33 | 47.13017 | 19.67578 | 99° | 7km/h | 23564m | 8.0m/s | -52.5°C | 3.0% | 33.7hPa | 2.7V | 00:00:00 | 01:27:45 | 00:00:00 | |
| GYPAP8-17 | 2026-09-03 12:22:31 | 47.13017 | 19.67576 | 136° | 5km/h | 23558m | 4.9m/s | -52.6°C | 0.1% | 33.8hPa | 2.7V | 00:00:00 | 00:00:00 | 00:00:00 | |
| ATIDSZ-14 | 2026-09-03 12:22:16 | 47.13021 | 19.67608 | 216° | 18km/h | 23457m | 7.3m/s | -52.5°C | 0.1% | 34.3hPa | 2.7V | 00:00:00 | 00:00:00 | 00:00:00 | |
| PETON7-10 | 2026-09-03 12:22:03 | 47.13024 | 19.67654 | 215° | 11km/h | 23371m | 4.2m/s | -52.4°C | 3.0% | 34.8hPa | 2.7V | 00:00:00 | 00:00:00 | 00:00:00 | |
| ATIDSZ-14 | 2026-09-03 12:21:54 | 47.13037 | 19.67640 | 17° | 7km/h | 23321m | 7.4m/s | -52.3°C | 0.1% | 35.1hPa | 2.7V | 00:00:00 | 00:00:00 | 00:00:00 | |
| PETON7-10 | 2026-09-03 12:21:48 | 47.13044 | 19.67648 | 175° | 9km/h | 23275m | 5.1m/s | -52.1°C | 2.9% | 35.3hPa | 2.7V | 00:00:00 | 01:27:00 | 00:00:00 | |
| ATIDSZ-14 | 2026-09-03 12:21:34 | 47.13035 | 19.67644 | 239° | 7km/h | 23186m | 4.4m/s | -52.1°C | 0.1% | 35.8hPa | 2.7V | 00:00:00 | 00:00:00 | 00:00:00 | |
| PETON7-10 | 2026-09-03 12:21:33 | 47.13037 | 19.67648 | 220° | 9km/h | 23173m | 8.6m/s | -52.1°C | 2.9% | 35.9hPa | 2.7V | 00:00:00 | 00:00:00 | 00:00:00 | |
| GYPAP8-17 | 2026-09-03 12:21:27 | 47.13032 | 19.67639 | 32° | 16km/h | 23143m | 7.2m/s | -52.1°C | 0.1% | 36.1hPa | 2.7V | 00:00:00 | 00:00:00 | 00:00:00 | |
| PETON7-10 | 2026-09-03 12:21:18 | 47.13003 | 19.67626 | 3° | 22km/h | 23078m | 6.9m/s | -51.9°C | 3.0% | 36.4hPa | 2.7V | 00:00:00 | 00:00:00 | 00:00:00 | |
| PETON7-10 | 2026-09-03 12:21:03 | 47.12919 | 19.67609 | 358° | 31km/h | 22982m | 7.5m/s | -51.4°C | 2.8% | 36.9hPa | 2.7V | 00:00:00 | 01:26:15 | 00:00:00 | |
| ATIDSZ-14 | 2026-09-03 12:20:54 | 47.12848 | 19.67593 | 8° | 31km/h | 22923m | 6.0m/s | -51.1°C | 0.1% | 37.3hPa | 2.7V | 00:00:00 | 00:00:00 | 00:00:00 | |
| PETON7-10 | 2026-09-03 12:20:48 | 47.12804 | 19.67595 | 352° | 29km/h | 22886m | 6.2m/s | -50.9°C | 2.7% | 37.4hPa | 2.7V | 00:00:00 | 00:00:00 | 00:00:00 | |
| PETON7-10 | 2026-09-03 12:20:33 | 47.12697 | 19.67599 | 338° | 18km/h | 22788m | 9.1m/s | -51.1°C | 2.7% | 38.0hPa | 2.6V | 00:00:00 | 00:00:00 | 00:00:00 | |
| PETON7-10 | 2026-09-03 12:20:18 | 47.12632 | 19.67617 | 337° | 16km/h | 22695m | 6.8m/s | -51.7°C | 2.8% | 38.6hPa | 2.6V | 00:00:00 | 01:25:30 | 00:00:00 | |
| GYPAP8-17 | 2026-09-03 12:20:14 | 47.12615 | 19.67621 | 351° | 18km/h | 22671m | 7.2m/s | -51.8°C | 0.1% | 38.7hPa | 2.6V | 00:00:00 | 00:00:00 | 00:00:00 | |
| ATIDSZ-14 | 2026-09-03 12:20:12 | 47.12611 | 19.67623 | 323° | 13km/h | 22665m | 4.1m/s | -51.8°C | 0.1% | 38.8hPa | 2.6V | 00:00:00 | 00:00:00 | 00:00:00 | |
| PETON7-10 | 2026-09-03 12:20:03 | 47.12610 | 19.67675 | 302° | 18km/h | 22604m | 5.7m/s | -52.3°C | 2.9% | 39.1hPa | 2.6V | 00:00:00 | 00:00:00 | 08:30:00 | |
| ATIDSZ-14 | 2026-09-03 12:19:52 | 47.12599 | 19.67738 | 259° | 16km/h | 22541m | 6.4m/s | -52.0°C | 0.1% | 39.6hPa | 2.7V | 00:00:00 | 00:00:00 | 00:00:00 | |
| PETON7-10 | 2026-09-03 12:19:48 | 47.12606 | 19.67773 | 250° | 16km/h | 22509m | 5.1m/s | -51.7°C | 2.8% | 39.7hPa | 2.7V | 00:00:00 | 00:00:00 | 00:00:00 | |
| PETON7-10 | 2026-09-03 12:19:33 | 47.12630 | 19.67859 | 214° | 16km/h | 22417m | 4.8m/s | -52.2°C | 2.9% | 40.3hPa | 2.7V | 00:00:00 | 01:24:45 | 00:00:00 | |
| ATIDSZ-14 | 2026-09-03 12:19:31 | 47.12634 | 19.67863 | 211° | 20km/h | 22410m | 7.4m/s | -52.3°C | 0.1% | 40.4hPa | 2.7V | 00:00:00 | 00:00:00 | 00:00:00 | |
| PETON7-10 | 2026-09-03 12:19:18 | 47.12679 | 19.67902 | 185° | 20km/h | 22321m | 4.3m/s | -52.6°C | 3.0% | 40.9hPa | 2.7V | 00:00:00 | 00:00:00 | 00:00:00 | |
| ATIDSZ-14 | 2026-09-03 12:19:10 | 47.12719 | 19.67892 | 162° | 27km/h | 22276m | 4.1m/s | -52.7°C | 0.1% | 41.2hPa | 2.7V | 00:00:00 | 00:00:00 | 00:00:00 | |
| GYPAP8-17 | 2026-09-03 12:19:09 | 47.12725 | 19.67889 | 161° | 24km/h | 22271m | 6.4m/s | -52.8°C | 0.1% | 41.3hPa | 2.7V | 00:00:00 | 00:00:00 | 00:00:00 | |
| PETON7-10 | 2026-09-03 12:19:01 | 47.12761 | 19.67876 | 162° | 15km/h | 22213m | 6.1m/s | -52.7°C | 3.0% | 41.6hPa | 2.7V | 00:00:00 | 00:00:00 | 00:00:00 | |
| ATIDSZ-14 | 2026-09-03 12:18:49 | 47.12798 | 19.67838 | 181° | 7km/h | 22147m | 5.4m/s | -52.5°C | 0.1% | 42.0hPa | 2.7V | 00:00:00 | 00:00:00 | 00:00:00 | |
| PETON7-10 | 2026-09-03 12:18:46 | 47.12799 | 19.67834 | 107° | 16km/h | 22123m | 5.6m/s | -52.4°C | 2.9% | 42.1hPa | 2.7V | 00:00:00 | 01:23:58 | 00:00:00 | |
| PETON7-10 | 2026-09-03 12:18:31 | 47.12823 | 19.67754 | 116° | 11km/h | 22027m | 6.0m/s | -52.7°C | 3.0% | 42.8hPa | 2.7V | 00:00:00 | 00:00:00 | 00:00:00 | |
| ATIDSZ-14 | 2026-09-03 12:18:28 | 47.12825 | 19.67749 | 131° | 9km/h | 22014m | 6.0m/s | -52.7°C | 0.2% | 42.9hPa | 2.7V | 00:00:00 | 00:00:00 | 00:00:00 | |
| PETON7-10 | 2026-09-03 12:18:16 | 47.12857 | 19.67736 | 192° | 18km/h | 21932m | 7.0m/s | -53.3°C | 3.1% | 43.5hPa | 2.7V | 00:00:00 | 00:00:00 | 00:00:00 | |
| ATIDSZ-14 | 2026-09-03 12:18:08 | 47.12882 | 19.67702 | 142° | 22km/h | 21881m | 6.5m/s | -53.4°C | 0.2% | 43.8hPa | 2.7V | 00:00:00 | 00:00:00 | 00:00:00 | |
| GYPAP8-17 | 2026-09-03 12:18:07 | 47.12882 | 19.67702 | 142° | 22km/h | 21881m | 6.5m/s | -53.4°C | 0.2% | 43.8hPa | 2.7V | 00:00:00 | 00:00:00 | 00:00:00 | |
| PETON7-10 | 2026-09-03 12:18:01 | 47.12916 | 19.67680 | 162° | 13km/h | 21836m | 6.6m/s | -53.7°C | 3.1% | 44.1hPa | 2.7V | 00:00:00 | 01:23:13 | 00:00:00 | |
| ATIDSZ-14 | 2026-09-03 12:17:47 | 47.12958 | 19.67660 | 170° | 7km/h | 21744m | 6.5m/s | -53.9°C | 0.2% | 44.8hPa | 2.7V | 00:00:00 | 00:00:00 | 00:00:00 | |
| PETON7-10 | 2026-09-03 12:17:46 | 47.12960 | 19.67659 | 164° | 11km/h | 21737m | 7.2m/s | -53.8°C | 3.2% | 44.7hPa | 2.7V | 00:00:00 | 00:00:00 | 08:30:00 | |
| PETON7-10 | 2026-09-03 12:17:31 | 47.13004 | 19.67654 | 189° | 18km/h | 21644m | 5.7m/s | -53.6°C | 3.2% | 45.4hPa | 2.6V | 00:00:00 | 00:00:00 | 00:00:00 | |
| ATIDSZ-14 | 2026-09-03 12:17:24 | 47.13031 | 19.67655 | 181° | 18km/h | 21608m | 6.5m/s | -53.6°C | 0.2% | 45.7hPa | 2.6V | 00:00:00 | 00:00:00 | 00:00:00 | |
| PETON7-10 | 2026-09-03 12:17:16 | 47.13071 | 19.67642 | 168° | 20km/h | 21555m | 5.1m/s | -53.6°C | 3.2% | 46.0hPa | 2.6V | 00:00:00 | 01:22:28 | 00:00:00 | |
| ATIDSZ-14 | 2026-09-03 12:17:04 | 47.13118 | 19.67602 | 145° | 22km/h | 21486m | 5.1m/s | -53.4°C | 0.2% | 46.6hPa | 2.6V | 00:00:00 | 00:00:00 | 00:00:00 | |
| GYPAP8-17 | 2026-09-03 12:17:02 | 47.13127 | 19.67593 | 143° | 22km/h | 21473m | 8.2m/s | -53.3°C | 0.2% | 46.7hPa | 2.6V | 00:00:00 | 00:00:00 | 00:00:00 | |
| PETON7-10 | 2026-09-03 12:17:01 | 47.13135 | 19.67585 | 148° | 29km/h | 21461m | 6.0m/s | -53.2°C | 3.0% | 46.8hPa | 2.6V | 00:00:00 | 00:00:00 | 00:00:00 | |
| PETON7-10 | 2026-09-03 12:16:46 | 47.13210 | 19.67469 | 115° | 29km/h | 21365m | 6.4m/s | -53.8°C | 3.1% | 47.5hPa | 2.7V | 00:00:00 | 00:00:00 | 00:00:00 | |
| 9A1FER-10 | 2026-09-03 12:16:45 | 47.13213 | 19.67460 | 113° | 29km/h | 21358m | 7.9m/s | -53.8°C | 3.1% | 47.5hPa | 2.7V | 00:00:00 | 01:21:57 | 00:00:00 | |
| ATIDSZ-14 | 2026-09-03 12:16:43 | 47.13215 | 19.67452 | 108° | 24km/h | 21351m | 4.9m/s | -53.8°C | 0.2% | 47.6hPa | 2.7V | 00:00:00 | 00:00:00 | 00:00:00 | |
| PETON7-10 | 2026-09-03 12:16:31 | 47.13252 | 19.67322 | 117° | 24km/h | 21273m | 6.2m/s | -54.4°C | 3.3% | 48.1hPa | 2.7V | 00:00:00 | 01:21:43 | 00:00:00 | |
| 9A1FER-10 | 2026-09-03 12:16:30 | 47.13254 | 19.67314 | 106° | 24km/h | 21267m | 5.6m/s | 0°C | 0% | 0hPa | 2.7V | 00:00:00 | 01:21:42 | 00:00:00 | |
| PETON7-10 | 2026-09-03 12:16:16 | 47.13256 | 19.67192 | 91° | 18km/h | 21182m | 5.4m/s | -54.0°C | 3.3% | 48.8hPa | 2.7V | 00:00:00 | 00:00:00 | 00:00:00 | |
| 9A1FER-10 | 2026-09-03 12:16:15 | 47.13256 | 19.67186 | 83° | 18km/h | 21175m | 7.2m/s | 0°C | 0% | 0hPa | 2.6V | 00:00:00 | 01:21:27 | 00:00:00 | |
| PETON7-10 | 2026-09-03 12:16:01 | 47.13248 | 19.67090 | 100° | 15km/h | 21093m | 3.0m/s | -53.3°C | 3.2% | 49.5hPa | 2.6V | 00:00:00 | 00:00:00 | 00:00:00 | |
| GYPAP8-17 | 2026-09-03 12:16:00 | 47.13249 | 19.67085 | 102° | 13km/h | 21088m | 6.3m/s | -53.4°C | 0.2% | 49.5hPa | 2.6V | 00:00:00 | 00:00:00 | 00:00:00 | |
| PETON7-10 | 2026-09-03 12:15:46 | 47.13256 | 19.67017 | 129° | 16km/h | 21000m | 5.0m/s | -52.6°C | 3.0% | 50.2hPa | 2.6V | 00:00:00 | 01:20:58 | 00:00:00 | |
| 9A1FER-10 | 2026-09-03 12:15:45 | 47.13258 | 19.67014 | 126° | 20km/h | 20994m | 6.4m/s | 0°C | 0% | 0hPa | 2.6V | 00:00:00 | 01:20:57 | 00:00:00 | |
| ATIDSZ-14 | 2026-09-03 12:15:41 | 47.13264 | 19.66991 | 89° | 16km/h | 20967m | 6.7m/s | -52.4°C | 0.1% | 50.5hPa | 2.6V | 00:00:00 | 00:00:00 | 00:00:00 | |
| PETON7-10 | 2026-09-03 12:15:31 | 47.13288 | 19.66939 | 155° | 20km/h | 20903m | 7.2m/s | -52.4°C | 2.9% | 51.0hPa | 2.6V | 00:00:00 | 00:00:00 | 08:30:00 | |
| ATIDSZ-14 | 2026-09-03 12:15:20 | 47.13330 | 19.66898 | 153° | 26km/h | 20835m | 4.6m/s | -52.9°C | 0.2% | 51.5hPa | 2.7V | 00:00:00 | 00:00:00 | 00:00:00 | |
| PETON7-10 | 2026-09-03 12:15:17 | 47.13347 | 19.66869 | 105° | 20km/h | 20814m | 4.0m/s | -53.2°C | 3.0% | 51.7hPa | 2.7V | 00:00:00 | 00:00:00 | 00:00:00 | |
| PETON7-10 | 2026-09-03 12:15:01 | 47.13364 | 19.66764 | 75° | 18km/h | 20722m | 6.6m/s | -53.8°C | 3.2% | 52.4hPa | 2.7V | 00:00:00 | 01:20:13 | 00:00:00 | |
| ATIDSZ-14 | 2026-09-03 12:14:58 | 47.13362 | 19.66745 | 84° | 29km/h | 20709m | 5.3m/s | -53.8°C | 0.2% | 52.6hPa | 2.7V | 00:00:00 | 00:00:00 | 00:00:00 | |
| GYPAP8-17 | 2026-09-03 12:14:56 | 47.13362 | 19.66726 | 108° | 24km/h | 20698m | 6.0m/s | -53.8°C | 0.2% | 52.7hPa | 2.7V | 00:00:00 | 00:00:00 | 00:00:00 | |
| PETON7-10 | 2026-09-03 12:14:46 | 47.13368 | 19.66670 | 47° | 13km/h | 20632m | 5.0m/s | -53.6°C | 3.2% | 53.2hPa | 2.7V | 00:00:00 | 00:00:00 | 00:00:00 | |
| ATIDSZ-14 | 2026-09-03 12:14:37 | 47.13358 | 19.66638 | 126° | 13km/h | 20581m | 8.2m/s | -53.3°C | 0.2% | 53.6hPa | 2.7V | 00:00:00 | 00:00:00 | 00:00:00 | |
| PETON7-10 | 2026-09-03 12:14:31 | 47.13366 | 19.66611 | 80° | 16km/h | 20536m | 4.2m/s | -53.1°C | 3.1% | 54.0hPa | 2.7V | 00:00:00 | 00:00:00 | 00:00:00 | |
| PETON7-10 | 2026-09-03 12:14:16 | 47.13393 | 19.66534 | 105° | 16km/h | 20449m | 7.3m/s | -52.6°C | 2.9% | 54.7hPa | 2.7V | 00:00:00 | 01:19:28 | 00:00:00 | |
| ATIDSZ-14 | 2026-09-03 12:14:14 | 47.13396 | 19.66519 | 103° | 22km/h | 20437m | 5.1m/s | -52.7°C | 0.2% | 54.9hPa | 2.7V | 00:00:00 | 00:00:00 | 00:00:00 | |
| PETON7-10 | 2026-09-03 12:14:01 | 47.13420 | 19.66451 | 117° | 29km/h | 20360m | 7.1m/s | -53.6°C | 3.1% | 55.5hPa | 2.7V | 00:00:00 | 00:00:00 | 00:00:00 | |
| ATIDSZ-14 | 2026-09-03 12:13:53 | 47.13417 | 19.66356 | 94° | 31km/h | 20314m | 4.1m/s | -54.1°C | 0.2% | 55.9hPa | 2.7V | 00:00:00 | 00:00:00 | 00:00:00 | |
| PETON7-10 | 2026-09-03 12:13:46 | 47.13421 | 19.66292 | 94° | 18km/h | 20273m | 6.2m/s | -54.4°C | 3.2% | 56.2hPa | 2.7V | 00:00:00 | 00:00:00 | 00:00:00 | |
| PETON7-10 | 2026-09-03 12:13:31 | 47.13432 | 19.66193 | 112° | 18km/h | 20182m | 6.8m/s | -54.7°C | 3.3% | 57.0hPa | 2.7V | 00:00:00 | 01:18:43 | 00:00:00 | |
| ATIDSZ-14 | 2026-09-03 12:13:29 | 47.13434 | 19.66187 | 120° | 16km/h | 20176m | 7.1m/s | -54.8°C | 0.3% | 57.1hPa | 2.7V | 00:00:00 | 00:00:00 | 00:00:00 | |
| LZ4TU-5 | 2026-09-03 12:13:09 | 47.13458 | 19.66060 | 90° | 20km/h | 20051m | 5.1m/s | -54.8°C | 0% | 0hPa | 2.7V | 00:00:00 | 00:00:00 | 00:00:00 | |
| LZ4TU-5 | 2026-09-03 12:13:06 | 47.13457 | 19.66027 | 96° | 26km/h | 20029m | 5.7m/s | -54.9°C | 0% | 0hPa | 2.7V | 00:00:00 | 00:00:00 | 00:00:00 | |
| ATIDSZ-14 | 2026-09-03 12:13:05 | 47.13457 | 19.66027 | 96° | 26km/h | 20029m | 5.7m/s | -54.9°C | 0.2% | 58.5hPa | 2.7V | 00:00:00 | 00:00:00 | 00:00:00 | |
| PETON7-10 | 2026-09-03 12:13:01 | 47.13452 | 19.65972 | 69° | 24km/h | 19999m | 4.8m/s | -54.7°C | 3.4% | 58.6hPa | 2.7V | 00:00:00 | 00:00:00 | 00:00:00 | |
| PETON7-10 | 2026-09-03 12:12:46 | 47.13407 | 19.65866 | 61° | 20km/h | 19907m | 5.5m/s | -54.1°C | 3.3% | 59.5hPa | 2.7V | 00:00:00 | 01:17:58 | 00:00:00 | |
| GYPAP8-17 | 2026-09-03 12:12:42 | 47.13390 | 19.65838 | 49° | 24km/h | 19882m | 6.6m/s | -54.1°C | 0.2% | 59.8hPa | 2.7V | 00:00:00 | 00:00:00 | 00:00:00 | |
| ATIDSZ-14 | 2026-09-03 12:12:38 | 47.13382 | 19.65818 | 65° | 20km/h | 19864m | 6.7m/s | -54.0°C | 0.2% | 60.0hPa | 2.7V | 00:00:00 | 00:00:00 | 00:00:00 | |
| PETON7-10 | 2026-09-03 12:12:31 | 47.13371 | 19.65771 | 52° | 15km/h | 19816m | 6.2m/s | -54.0°C | 3.2% | 60.4hPa | 2.7V | 00:00:00 | 00:00:00 | 00:00:00 | |
| ATIDSZ-14 | 2026-09-03 12:12:17 | 47.13356 | 19.65713 | 85° | 15km/h | 19735m | 5.6m/s | -53.9°C | 0.2% | 61.2hPa | 2.7V | 00:00:00 | 00:00:00 | 00:00:00 | |
| PETON7-10 | 2026-09-03 12:12:16 | 47.13353 | 19.65704 | 45° | 13km/h | 19723m | 6.8m/s | -53.8°C | 3.2% | 61.3hPa | 2.7V | 00:00:00 | 00:00:00 | 00:00:00 | |
| PETON7-10 | 2026-09-03 12:12:01 | 47.13350 | 19.65643 | 75° | 13km/h | 19632m | 7.1m/s | -53.8°C | 3.2% | 62.1hPa | 2.7V | 00:00:00 | 01:17:13 | 00:00:00 | |
| ATIDSZ-14 | 2026-09-03 12:11:54 | 47.13344 | 19.65611 | 98° | 11km/h | 19593m | 7.7m/s | -53.8°C | 0.2% | 62.6hPa | 2.7V | 00:00:00 | 00:00:00 | 00:00:00 | |
| PETON7-10 | 2026-09-03 12:11:46 | 47.13355 | 19.65586 | 66° | 13km/h | 19536m | 5.7m/s | -53.8°C | 3.2% | 63.1hPa | 2.7V | 00:00:00 | 00:00:00 | 00:00:00 | |
| GYPAP8-17 | 2026-09-03 12:11:39 | 47.13349 | 19.65568 | 114° | 11km/h | 19503m | 6.1m/s | -53.8°C | 0.2% | 63.5hPa | 2.7V | 00:00:00 | 00:00:00 | 00:00:00 | |
| ATIDSZ-14 | 2026-09-03 12:11:33 | 47.13367 | 19.65546 | 134° | 15km/h | 19469m | 6.0m/s | -53.9°C | 0.2% | 63.8hPa | 2.7V | 00:00:00 | 00:00:00 | 00:00:00 | |
| PETON7-10 | 2026-09-03 12:11:31 | 47.13371 | 19.65536 | 106° | 11km/h | 19452m | 5.9m/s | -53.9°C | 3.2% | 63.9hPa | 2.7V | 00:00:00 | 00:00:00 | 00:00:00 | |
| OE3JTB-15 | 2026-09-03 12:11:20 | 47.13383 | 19.65492 | 315° | 9km/h | 19364m | 6.0m/s | -53.4°C | 3.2% | 64.8hPa | 2.7V | 00:00:00 | 00:00:00 | 00:00:00 | |
| PETON7-10 | 2026-09-03 12:11:16 | 47.13384 | 19.65492 | 123° | 9km/h | 19359m | 4.8m/s | -53.3°C | 3.2% | 64.8hPa | 2.7V | 00:00:00 | 01:16:28 | 00:00:00 | |
| ATIDSZ-14 | 2026-09-03 12:11:12 | 47.13388 | 19.65483 | 118° | 16km/h | 19340m | 5.6m/s | -53.2°C | 0.2% | 65.1hPa | 2.7V | 00:00:00 | 00:00:00 | 00:00:00 | |
| PETON7-10 | 2026-09-03 12:11:01 | 47.13408 | 19.65458 | 54° | 9km/h | 19265m | 5.7m/s | -52.5°C | 3.0% | 65.8hPa | 2.7V | 00:00:00 | 00:00:00 | 08:30:00 | |
| ATIDSZ-14 | 2026-09-03 12:10:41 | 47.13423 | 19.65414 | 136° | 26km/h | 19150m | 6.7m/s | -51.7°C | 0.2% | 67.0hPa | 2.7V | 00:00:00 | 00:00:00 | 00:00:00 | |
| GYPAP8-17 | 2026-09-03 12:10:37 | 47.13427 | 19.65402 | 21° | 11km/h | 19118m | 4.4m/s | -51.8°C | 0.2% | 67.3hPa | 2.7V | 00:00:00 | 00:00:00 | 00:00:00 | |
| OE3JTB-15 | 2026-09-03 12:10:34 | 47.13428 | 19.65387 | 128° | 24km/h | 19078m | 9.1m/s | -51.6°C | 2.8% | 67.7hPa | 2.7V | 00:00:00 | 00:00:00 | 00:00:00 | |
| PETON7-10 | 2026-09-03 12:10:31 | 47.13428 | 19.65387 | 128° | 22km/h | 19078m | 9.1m/s | -51.6°C | 2.8% | 67.7hPa | 2.7V | 00:00:00 | 01:15:43 | 00:00:00 | |
| PETON7-10 | 2026-09-03 12:10:16 | 47.13452 | 19.65269 | 106° | 35km/h | 18979m | 6.1m/s | -52.1°C | 2.8% | 68.8hPa | 2.7V | 00:00:00 | 00:00:00 | 00:00:00 | |
| ATIDSZ-14 | 2026-09-03 12:10:14 | 47.13453 | 19.65261 | 97° | 24km/h | 18973m | 5.6m/s | -52.3°C | 0.2% | 68.9hPa | 2.7V | 00:00:00 | 00:00:00 | 00:00:00 | |
| OE3JTB-15 | 2026-09-03 12:10:04 | 47.13467 | 19.65072 | 96° | 33km/h | 18886m | 5.8m/s | -52.9°C | 3.0% | 69.8hPa | 2.7V | 00:00:00 | 01:15:13 | 00:00:00 | |
| PETON7-10 | 2026-09-03 12:10:01 | 47.13467 | 19.65072 | 96° | 33km/h | 18886m | 5.8m/s | -52.9°C | 3.0% | 69.8hPa | 2.7V | 00:00:00 | 00:00:00 | 00:00:00 | |
| LZ4TU-5 | 2026-09-03 12:09:44 | 47.13464 | 19.64877 | 107° | 29km/h | 18786m | 6.8m/s | 0°C | 0% | 0hPa | 2.7V | 00:00:00 | 00:00:00 | 00:00:00 | |
| LZ4TU-5 | 2026-09-03 12:09:39 | 47.13475 | 19.64825 | 110° | 31km/h | 18756m | 7.3m/s | 0°C | 0% | 0hPa | 2.7V | 00:00:00 | 00:00:00 | 00:00:00 | |
| PETON7-10 | 2026-09-03 12:09:31 | 47.13497 | 19.64710 | 118° | 29km/h | 18703m | 4.9m/s | -53.9°C | 3.2% | 71.8hPa | 2.7V | 00:00:00 | 00:00:00 | 00:00:00 | |
| GYPAP8-17 | 2026-09-03 12:09:24 | 47.13518 | 19.64659 | 125° | 27km/h | 18667m | 4.9m/s | -53.9°C | 0.2% | 72.2hPa | 2.7V | 00:00:00 | 00:00:00 | 00:00:00 | |
| PETON7-10 | 2026-09-03 12:09:16 | 47.13546 | 19.64568 | 117° | 33km/h | 18613m | 5.6m/s | -53.9°C | 3.1% | 72.8hPa | 2.7V | 00:00:00 | 00:00:00 | 00:00:00 | |
| OE3JTB-15 | 2026-09-03 12:09:04 | 47.13571 | 19.64396 | 99° | 53km/h | 18523m | 6.5m/s | -54.5°C | 3.2% | 73.8hPa | 2.7V | 00:00:00 | 00:00:00 | 00:00:00 | |
| PETON7-10 | 2026-09-03 12:09:01 | 47.13571 | 19.64396 | 99° | 31km/h | 18523m | 6.5m/s | -54.5°C | 3.2% | 73.8hPa | 2.7V | 00:00:00 | 01:14:13 | 00:00:00 | |
| PETON7-10 | 2026-09-03 12:08:46 | 47.13589 | 19.64229 | 90° | 37km/h | 18434m | 6.3m/s | -54.7°C | 3.3% | 74.8hPa | 2.7V | 00:00:00 | 00:00:00 | 08:30:00 | |
| ATIDSZ-14 | 2026-09-03 12:08:43 | 47.13589 | 19.64203 | 94° | 33km/h | 18420m | 6.0m/s | -54.8°C | 0.3% | 75.0hPa | 2.7V | 00:00:00 | 00:00:00 | 00:00:00 | |
| PETON7-10 | 2026-09-03 12:08:27 | 47.13560 | 19.63984 | 86° | 31km/h | 18314m | 6.4m/s | -54.7°C | 3.3% | 76.2hPa | 2.7V | 00:00:00 | 00:00:00 | 00:00:00 | |
| PETON7-10 | 2026-09-03 12:08:12 | 47.13548 | 19.63818 | 86° | 26km/h | 18222m | 5.3m/s | -54.4°C | 3.2% | 77.4hPa | 2.7V | 00:00:00 | 01:13:24 | 00:00:00 | |
| PETON7-10 | 2026-09-03 12:07:57 | 47.13547 | 19.63679 | 107° | 27km/h | 18132m | 6.1m/s | -55.3°C | 3.5% | 78.5hPa | 2.7V | 00:00:00 | 00:00:00 | 00:00:00 | |
| ATIDSZ-14 | 2026-09-03 12:07:50 | 47.13569 | 19.63632 | 134° | 31km/h | 18089m | 5.1m/s | -55.2°C | 0.3% | 79.0hPa | 2.7V | 00:00:00 | 00:00:00 | 00:00:00 | |
| PETON7-10 | 2026-09-03 12:07:42 | 47.13603 | 19.63563 | 116° | 22km/h | 18041m | 4.5m/s | -54.9°C | 3.3% | 79.6hPa | 2.7V | 00:00:00 | 00:00:00 | 00:00:00 | |
| 9A1FER-10 | 2026-09-03 12:07:33 | 47.13632 | 19.63497 | 111° | 40km/h | 17987m | 5.1m/s | 0°C | 0% | 0hPa | 2.7V | 00:00:00 | 01:12:45 | 00:00:00 | |
| ATIDSZ-14 | 2026-09-03 12:07:29 | 47.13636 | 19.63472 | 108° | 22km/h | 17966m | 6.1m/s | -54.6°C | 0.3% | 80.6hPa | 2.7V | 00:00:00 | 00:00:00 | 00:00:00 | |
| GYPAP8-17 | 2026-09-03 12:07:22 | 47.13646 | 19.63414 | 98° | 20km/h | 17921m | 5.0m/s | -54.5°C | 0.3% | 81.2hPa | 2.7V | 00:00:00 | 00:00:00 | 00:00:00 | |
| PETON7-10 | 2026-09-03 12:07:12 | 47.13641 | 19.63337 | 88° | 24km/h | 17861m | 5.2m/s | -54.5°C | 3.4% | 81.9hPa | 2.7V | 00:00:00 | 00:00:00 | 00:00:00 | |
| ATIDSZ-14 | 2026-09-03 12:07:08 | 47.13641 | 19.63312 | 83° | 24km/h | 17843m | 5.6m/s | -54.5°C | 0.3% | 82.2hPa | 2.7V | 00:00:00 | 00:00:00 | 00:00:00 | |
| PETON7-10 | 2026-09-03 12:06:57 | 47.13624 | 19.63215 | 112° | 20km/h | 17773m | 5.4m/s | -53.8°C | 3.2% | 83.0hPa | 2.7V | 00:00:00 | 00:00:00 | 00:00:00 | |
| ATIDSZ-14 | 2026-09-03 12:06:49 | 47.13621 | 19.63165 | 74° | 29km/h | 17727m | 4.5m/s | -53.6°C | 0.3% | 83.6hPa | 2.7V | 00:00:00 | 00:00:00 | 00:00:00 | |
| PETON7-10 | 2026-09-03 12:06:42 | 47.13615 | 19.63108 | 137° | 18km/h | 17686m | 6.7m/s | -53.3°C | 3.1% | 84.1hPa | 2.7V | 00:00:00 | 01:11:54 | 00:00:00 | |
| GYPAP8-17 | 2026-09-03 12:06:30 | 47.13624 | 19.63049 | 145° | 15km/h | 17612m | 3.4m/s | -53.0°C | 0.3% | 85.2hPa | 2.7V | 00:00:00 | 00:00:00 | 00:00:00 | |
| ATIDSZ-14 | 2026-09-03 12:06:27 | 47.13638 | 19.63036 | 140° | 27km/h | 17594m | 5.8m/s | -52.9°C | 0.3% | 85.4hPa | 2.7V | 00:00:00 | 00:00:00 | 00:00:00 | |
| PETON7-10 | 2026-09-03 12:06:12 | 47.13699 | 19.62877 | 118° | 35km/h | 17492m | 5.1m/s | -53.9°C | 3.2% | 86.6hPa | 2.7V | 00:00:00 | 00:00:00 | 00:00:00 | |
| ATIDSZ-14 | 2026-09-03 12:06:06 | 47.13724 | 19.62804 | 129° | 38km/h | 17461m | 6.3m/s | -53.9°C | 0.3% | 87.1hPa | 2.7V | 00:00:00 | 00:00:00 | 00:00:00 | |
| PETON7-10 | 2026-09-03 12:05:57 | 47.13773 | 19.62723 | 113° | 31km/h | 17409m | 5.2m/s | -53.7°C | 3.1% | 87.9hPa | 2.7V | 00:00:00 | 01:11:09 | 00:00:00 | |
| ATIDSZ-14 | 2026-09-03 12:05:45 | 47.13818 | 19.62605 | 113° | 27km/h | 17345m | 5.1m/s | -54.5°C | 0.4% | 88.8hPa | 2.7V | 00:00:00 | 00:00:00 | 00:00:00 | |
| PETON7-10 | 2026-09-03 12:05:42 | 47.13827 | 19.62576 | 114° | 33km/h | 17327m | 5.1m/s | -54.7°C | 3.4% | 88.9hPa | 2.7V | 00:00:00 | 00:00:00 | 00:00:00 | |
| GYPAP8-17 | 2026-09-03 12:05:36 | 47.13840 | 19.62523 | 106° | 33km/h | 17297m | 5.2m/s | -55.0°C | 0.4% | 89.4hPa | 2.7V | 00:00:00 | 00:00:00 | 00:00:00 | |
| PETON7-10 | 2026-09-03 12:05:27 | 47.13861 | 19.62403 | 114° | 37km/h | 17240m | 5.4m/s | -55.1°C | 3.5% | 90.2hPa | 2.7V | 00:00:00 | 00:00:00 | 00:00:00 | |
| ATIDSZ-14 | 2026-09-03 12:05:22 | 47.13874 | 19.62354 | 106° | 38km/h | 17218m | 4.8m/s | -55.1°C | 0.4% | 90.6hPa | 2.7V | 00:00:00 | 00:00:00 | 00:00:00 | |
| PETON7-10 | 2026-09-03 12:05:12 | 47.13900 | 19.62212 | 108° | 37km/h | 17155m | 5.5m/s | -54.9°C | 3.5% | 91.4hPa | 2.7V | 00:00:00 | 01:10:24 | 00:00:00 | |
| ATIDSZ-14 | 2026-09-03 12:04:57 | 47.13918 | 19.62017 | 101° | 35km/h | 17071m | 5.6m/s | -54.5°C | 0.4% | 92.6hPa | 2.7V | 00:00:00 | 00:00:00 | 00:00:00 | |
| GYPAP8-17 | 2026-09-03 12:04:45 | 47.13935 | 19.61856 | 99° | 38km/h | 17003m | 5.9m/s | -54.1°C | 0.4% | 93.6hPa | 2.7V | 00:00:00 | 00:00:00 | 00:00:00 | |
| PETON7-10 | 2026-09-03 12:04:42 | 47.13937 | 19.61815 | 96° | 35km/h | 16985m | 4.9m/s | -53.9°C | 3.3% | 93.8hPa | 2.7V | 00:00:00 | 00:00:00 | 00:00:00 | |
| ATIDSZ-14 | 2026-09-03 12:04:35 | 47.13941 | 19.61739 | 108° | 33km/h | 16950m | 5.3m/s | -53.8°C | 0.4% | 94.4hPa | 2.7V | 00:00:00 | 00:00:00 | 00:00:00 | |
| PETON7-10 | 2026-09-03 12:04:27 | 47.13965 | 19.61627 | 103° | 35km/h | 16898m | 4.8m/s | -53.6°C | 3.3% | 95.1hPa | 2.7V | 00:00:00 | 01:09:39 | 00:00:00 | |
| ATIDSZ-14 | 2026-09-03 12:04:14 | 47.13981 | 19.61481 | 119° | 35km/h | 16826m | 6.9m/s | -53.4°C | 0.4% | 96.2hPa | 2.7V | 00:00:00 | 00:00:00 | 00:00:00 | |
| PETON7-10 | 2026-09-03 12:04:12 | 47.13994 | 19.61447 | 120° | 35km/h | 16807m | 7.0m/s | -53.2°C | 3.1% | 96.4hPa | 2.7V | 00:00:00 | 00:00:00 | 08:30:00 | |
| PETON7-10 | 2026-09-03 12:03:57 | 47.14054 | 19.61281 | 121° | 38km/h | 16718m | 5.2m/s | -53.2°C | 3.2% | 97.8hPa | 2.7V | 00:00:00 | 00:00:00 | 00:00:00 | |
| ATIDSZ-14 | 2026-09-03 12:03:54 | 47.14069 | 19.61237 | 111° | 44km/h | 16700m | 4.5m/s | -53.2°C | 0.4% | 98.1hPa | 2.7V | 00:00:00 | 00:00:00 | 00:00:00 | |
| GYPAP8-17 | 2026-09-03 12:03:52 | 47.14072 | 19.61223 | 112° | 40km/h | 16695m | 7.1m/s | -53.3°C | 0.4% | 98.2hPa | 2.7V | 00:00:00 | 00:00:00 | 00:00:00 | |
| PETON7-10 | 2026-09-03 12:03:42 | 47.14128 | 19.61097 | 118° | 40km/h | 16629m | 5.5m/s | -53.5°C | 3.2% | 99.2hPa | 2.7V | 00:00:00 | 01:08:54 | 00:00:00 | |
| ATIDSZ-14 | 2026-09-03 12:03:32 | 47.14177 | 19.60980 | 118° | 38km/h | 16574m | 6.2m/s | -53.5°C | 0.4% | 100.1hPa | 2.7V | 00:00:00 | 00:00:00 | 00:00:00 | |
| PETON7-10 | 2026-09-03 12:03:27 | 47.14199 | 19.60907 | 112° | 35km/h | 16538m | 5.0m/s | -53.5°C | 3.3% | 100.6hPa | 2.7V | 00:00:00 | 00:00:00 | 00:00:00 | |
| PETON7-10 | 2026-09-03 12:03:13 | 47.14248 | 19.60733 | 113° | 35km/h | 16443m | 7.1m/s | -53.0°C | 3.1% | 102.1hPa | 2.7V | 00:00:00 | 00:00:00 | 00:00:00 | |
| GYPAP8-17 | 2026-09-03 12:03:00 | 47.14299 | 19.60603 | 114° | 29km/h | 16369m | 6.1m/s | -52.6°C | 0.4% | 103.3hPa | 2.7V | 00:00:00 | 00:00:00 | 00:00:00 | |
| PETON7-10 | 2026-09-03 12:02:57 | 47.14311 | 19.60571 | 122° | 42km/h | 16350m | 6.1m/s | -52.8°C | 3.0% | 103.5hPa | 2.7V | 00:00:00 | 01:08:09 | 00:00:00 | |
| ATIDSZ-14 | 2026-09-03 12:02:51 | 47.14354 | 19.60501 | 138° | 46km/h | 16307m | 6.4m/s | -53.5°C | 0.4% | 104.3hPa | 2.7V | 00:00:00 | 00:00:00 | 00:00:00 | |
| PETON7-10 | 2026-09-03 12:02:42 | 47.14416 | 19.60396 | 128° | 44km/h | 16253m | 5.5m/s | -53.5°C | 3.3% | 105.1hPa | 2.7V | 00:00:00 | 00:00:00 | 00:00:00 | |
| ATIDSZ-14 | 2026-09-03 12:02:30 | 47.14482 | 19.60242 | 129° | 44km/h | 16186m | 7.0m/s | -53.3°C | 0.4% | 106.3hPa | 2.7V | 00:00:00 | 00:00:00 | 00:00:00 | |
| PETON7-10 | 2026-09-03 12:02:27 | 47.14508 | 19.60191 | 122° | 42km/h | 16161m | 4.9m/s | -53.2°C | 3.2% | 106.7hPa | 2.7V | 00:00:00 | 00:00:00 | 00:00:00 | |
| PETON7-10 | 2026-09-03 12:02:12 | 47.14585 | 19.59984 | 126° | 40km/h | 16077m | 4.8m/s | -53.2°C | 3.2% | 108.1hPa | 2.7V | 00:00:00 | 01:07:24 | 00:00:00 | |
| GYPAP8-17 | 2026-09-03 12:02:05 | 47.14612 | 19.59912 | 115° | 37km/h | 16042m | 7.2m/s | -53.9°C | 0.5% | 108.6hPa | 2.7V | 00:00:00 | 00:00:00 | 00:00:00 | |
| PETON7-10 | 2026-09-03 12:01:57 | 47.14665 | 19.59790 | 128° | 55km/h | 15987m | 6.4m/s | -53.7°C | 3.3% | 109.6hPa | 2.7V | 00:00:00 | 00:00:00 | 08:30:00 | |
| ATIDSZ-14 | 2026-09-03 12:01:49 | 47.14725 | 19.59691 | 140° | 57km/h | 15945m | 5.8m/s | -53.8°C | 0.5% | 110.4hPa | 2.7V | 00:00:00 | 00:00:00 | 00:00:00 | |
| PETON7-10 | 2026-09-03 12:01:42 | 47.14816 | 19.59572 | 137° | 69km/h | 15897m | 5.2m/s | -54.2°C | 3.5% | 111.1hPa | 2.7V | 00:00:00 | 00:00:00 | 00:00:00 | |
| ATIDSZ-14 | 2026-09-03 12:01:28 | 47.14975 | 19.59340 | 133° | 80km/h | 15823m | 3.3m/s | -54.7°C | 0.7% | 112.5hPa | 2.7V | 00:00:00 | 00:00:00 | 00:00:00 | |
| PETON7-10 | 2026-09-03 12:01:26 | 47.15012 | 19.59275 | 128° | 69km/h | 15806m | 4.3m/s | -54.5°C | 3.7% | 112.8hPa | 2.7V | 00:00:00 | 01:06:38 | 00:00:00 | |
| PETON7-10 | 2026-09-03 12:01:11 | 47.15158 | 19.58951 | 118° | 73km/h | 15720m | 5.2m/s | -54.2°C | 3.6% | 114.2hPa | 2.7V | 00:00:00 | 00:00:00 | 00:00:00 | |
| PETON7-10 | 2026-09-03 12:00:56 | 47.15305 | 19.58606 | 120° | 69km/h | 15638m | 5.3m/s | -54.7°C | 3.7% | 115.7hPa | 2.7V | 00:00:00 | 00:00:00 | 00:00:00 | |
| PETON7-10 | 2026-09-03 12:00:41 | 47.15413 | 19.58253 | 115° | 78km/h | 15555m | 6.0m/s | -56.1°C | 4.1% | 117.2hPa | 2.7V | 00:00:00 | 01:05:53 | 00:00:00 | |
| ATIDSZ-14 | 2026-09-03 12:00:30 | 47.15475 | 19.57981 | 106° | 82km/h | 15503m | 5.0m/s | -57.4°C | 1.1% | 118.3hPa | 2.7V | 00:00:00 | 00:00:00 | 00:00:00 | |
| PETON7-10 | 2026-09-03 12:00:26 | 47.15499 | 19.57838 | 105° | 71km/h | 15478m | 5.0m/s | -57.7°C | 4.7% | 118.7hPa | 2.7V | 00:00:00 | 00:00:00 | 00:00:00 | |
| PETON7-10 | 2026-09-03 12:00:11 | 47.15545 | 19.57450 | 100° | 58km/h | 15399m | 8.0m/s | -57.6°C | 4.8% | 120.1hPa | 2.7V | 00:00:00 | 00:00:00 | 00:00:00 | |
| GYPAP8-17 | 2026-09-03 12:00:09 | 47.15548 | 19.57429 | 103° | 57km/h | 15393m | 4.8m/s | -57.7°C | 1.2% | 120.3hPa | 2.7V | 00:00:00 | 00:00:00 | 00:00:00 | |
| ATIDSZ-14 | 2026-09-03 12:00:08 | 47.15551 | 19.57408 | 102° | 57km/h | 15388m | 5.4m/s | -57.7°C | 1.2% | 120.4hPa | 2.7V | 00:00:00 | 00:00:00 | 00:00:00 | |
| PETON7-10 | 2026-09-03 11:59:56 | 47.15593 | 19.57134 | 108° | 49km/h | 15318m | 5.6m/s | -57.2°C | 4.7% | 121.7hPa | 2.7V | 00:00:00 | 01:05:08 | 00:00:00 | |
| ATIDSZ-14 | 2026-09-03 11:59:48 | 47.15614 | 19.57023 | 105° | 53km/h | 15277m | 6.0m/s | -57.1°C | 1.2% | 122.6hPa | 2.7V | 00:00:00 | 00:00:00 | 00:00:00 | |
| PETON7-10 | 2026-09-03 11:59:41 | 47.15651 | 19.56879 | 115° | 42km/h | 15230m | 6.2m/s | -56.8°C | 4.6% | 123.3hPa | 2.7V | 00:00:00 | 00:00:00 | 08:30:00 | |
| ATIDSZ-14 | 2026-09-03 11:59:28 | 47.15719 | 19.56698 | 124° | 40km/h | 15146m | 5.4m/s | -56.8°C | 1.2% | 125.1hPa | 2.7V | 00:00:00 | 00:00:00 | 00:00:00 | |
| PETON7-10 | 2026-09-03 11:59:26 | 47.15731 | 19.56672 | 127° | 44km/h | 15133m | 5.3m/s | -56.6°C | 4.6% | 125.3hPa | 2.7V | 00:00:00 | 00:00:00 | 00:00:00 | |
| PETON7-10 | 2026-09-03 11:59:11 | 47.15836 | 19.56483 | 131° | 53km/h | 15042m | 7.2m/s | -56.2°C | 4.4% | 127.1hPa | 2.7V | 00:00:00 | 01:04:23 | 00:00:00 | |
| GYPAP8-17 | 2026-09-03 11:59:06 | 47.15882 | 19.56413 | 138° | 53km/h | 15009m | 5.5m/s | -56.1°C | 1.1% | 127.8hPa | 2.7V | 00:00:00 | 00:00:00 | 00:00:00 | |
| ATIDSZ-14 | 2026-09-03 11:59:05 | 47.15882 | 19.56413 | 138° | 53km/h | 15009m | 5.5m/s | -56.1°C | 1.1% | 127.8hPa | 2.7V | 00:00:00 | 00:00:00 | 00:00:00 | |
| PETON7-10 | 2026-09-03 11:58:56 | 47.15970 | 19.56257 | 137° | 62km/h | 14946m | 3.9m/s | -56.1°C | 4.4% | 129.1hPa | 2.7V | 00:00:00 | 00:00:00 | 00:00:00 | |
| ATIDSZ-14 | 2026-09-03 11:58:45 | 47.16071 | 19.56083 | 125° | 62km/h | 14886m | 7.0m/s | -56.1°C | 1.1% | 130.3hPa | 2.7V | 00:00:00 | 00:00:00 | 00:00:00 | |
| PETON7-10 | 2026-09-03 11:58:40 | 47.16121 | 19.55969 | 127° | 66km/h | 14848m | 5.9m/s | -56.3°C | 4.4% | 131.1hPa | 2.7V | 00:00:00 | 00:00:00 | 00:00:00 | |
| PETON7-10 | 2026-09-03 11:58:25 | 47.16247 | 19.55653 | 122° | 69km/h | 14756m | 5.2m/s | -56.0°C | 4.5% | 133.0hPa | 2.7V | 00:00:00 | 01:03:37 | 00:00:00 | |
| ATIDSZ-14 | 2026-09-03 11:58:24 | 47.16247 | 19.55652 | 122° | 62km/h | 14756m | 5.2m/s | -56.0°C | 1.1% | 133.0hPa | 2.7V | 00:00:00 | 00:00:00 | 00:00:00 | |
| 9A1FER-10 | 2026-09-03 11:58:18 | 47.16308 | 19.55504 | 121° | 71km/h | 14714m | 4.4m/s | 0°C | 0% | 0hPa | 2.7V | 00:00:00 | 01:03:30 | 00:00:00 | |
| OE3JTB-15 | 2026-09-03 11:58:13 | 47.16383 | 19.55318 | 121° | 75km/h | 14667m | 7.3m/s | -55.3°C | 4.3% | 134.8hPa | 2.7V | 00:00:00 | 01:03:22 | 00:00:00 | |
| PETON7-10 | 2026-09-03 11:58:10 | 47.16383 | 19.55318 | 121° | 75km/h | 14667m | 7.3m/s | -55.3°C | 4.3% | 134.8hPa | 2.7V | 00:00:00 | 00:00:00 | 00:00:00 | |
| GYPAP8-17 | 2026-09-03 11:58:06 | 47.16422 | 19.55221 | 119° | 71km/h | 14644m | 3.0m/s | -55.2°C | 1.1% | 135.4hPa | 2.7V | 00:00:00 | 00:00:00 | 00:00:00 | |
| ATIDSZ-14 | 2026-09-03 11:58:04 | 47.16439 | 19.55173 | 118° | 77km/h | 14633m | 7.5m/s | -55.2°C | 1.1% | 135.6hPa | 2.7V | 00:00:00 | 00:00:00 | 00:00:00 | |
| PETON7-10 | 2026-09-03 11:57:55 | 47.16519 | 19.54949 | 122° | 73km/h | 14578m | 3.9m/s | -54.7°C | 4.1% | 136.7hPa | 2.7V | 00:00:00 | 00:00:00 | 00:00:00 | |
| ATIDSZ-14 | 2026-09-03 11:57:43 | 47.16619 | 19.54645 | 117° | 68km/h | 14502m | 7.3m/s | -54.5°C | 1.0% | 138.4hPa | 2.7V | 00:00:00 | 00:00:00 | 00:00:00 | |
| PETON7-10 | 2026-09-03 11:57:40 | 47.16641 | 19.54581 | 120° | 71km/h | 14484m | 4.9m/s | -54.3°C | 4.0% | 138.8hPa | 2.7V | 00:00:00 | 01:02:52 | 00:00:00 | |
| PETON7-10 | 2026-09-03 11:57:25 | 47.16753 | 19.54218 | 123° | 64km/h | 14395m | 3.7m/s | -53.8°C | 3.9% | 140.7hPa | 2.7V | 00:00:00 | 00:00:00 | 08:30:00 | |
| ATIDSZ-14 | 2026-09-03 11:57:21 | 47.16776 | 19.54157 | 117° | 62km/h | 14378m | 6.3m/s | -53.7°C | 1.0% | 141.1hPa | 2.7V | 00:00:00 | 00:00:00 | 00:00:00 | |
| PETON7-10 | 2026-09-03 11:57:10 | 47.16852 | 19.53890 | 117° | 68km/h | 14306m | 6.1m/s | -53.8°C | 3.9% | 142.7hPa | 2.7V | 00:00:00 | 00:00:00 | 00:00:00 | |
| ATIDSZ-14 | 2026-09-03 11:57:02 | 47.16905 | 19.53709 | 106° | 69km/h | 14266m | 5.4m/s | -53.8°C | 1.0% | 143.6hPa | 2.7V | 00:00:00 | 00:00:00 | 00:00:00 | |
| GYPAP8-17 | 2026-09-03 11:57:01 | 47.16905 | 19.53709 | 106° | 69km/h | 14266m | 5.4m/s | -53.8°C | 1.0% | 143.6hPa | 2.7V | 00:00:00 | 00:00:00 | 00:00:00 | |
| PETON7-10 | 2026-09-03 11:56:55 | 47.16949 | 19.53543 | 116° | 64km/h | 14231m | 3.8m/s | -53.5°C | 3.9% | 144.4hPa | 2.7V | 00:00:00 | 01:02:07 | 00:00:00 | |
| OE3JTB-15 | 2026-09-03 11:56:52 | 47.16978 | 19.53463 | 117° | 64km/h | 14210m | 6.1m/s | -53.5°C | 3.9% | 144.8hPa | 2.7V | 00:00:00 | 00:00:00 | 00:00:00 | |
| ATIDSZ-14 | 2026-09-03 11:56:41 | 47.17036 | 19.53266 | 118° | 64km/h | 14163m | 5.8m/s | -53.4°C | 1.0% | 146.0hPa | 2.7V | 00:00:00 | 00:00:00 | 00:00:00 | |
| PETON7-10 | 2026-09-03 11:56:40 | 47.17051 | 19.53222 | 115° | 64km/h | 14153m | 5.7m/s | -53.4°C | 3.9% | 146.1hPa | 2.7V | 00:00:00 | 00:00:00 | 00:00:00 | |
| 9A1FER-10 | 2026-09-03 11:56:34 | 47.17091 | 19.53091 | 112° | 62km/h | 14121m | 4.8m/s | 0°C | 0% | 0hPa | 2.7V | 00:00:00 | 01:01:46 | 00:00:00 | |
| PETON7-10 | 2026-09-03 11:56:24 | 47.17147 | 19.52869 | 110° | 64km/h | 14069m | 6.1m/s | -53.3°C | 4.0% | 148.1hPa | 2.7V | 00:00:00 | 00:00:00 | 00:00:00 | |
| OE3JTB-15 | 2026-09-03 11:56:23 | 47.17153 | 19.52846 | 110° | 64km/h | 14063m | 6.5m/s | -53.3°C | 4.0% | 148.1hPa | 2.7V | 00:00:00 | 01:01:35 | 00:00:00 | |
| ATIDSZ-14 | 2026-09-03 11:56:20 | 47.17167 | 19.52779 | 105° | 62km/h | 14047m | 6.2m/s | -53.5°C | 1.1% | 148.6hPa | 2.7V | 00:00:00 | 00:00:00 | 00:00:00 | |
| PETON7-10 | 2026-09-03 11:56:09 | 47.17212 | 19.52526 | 107° | 62km/h | 13982m | 5.0m/s | -53.5°C | 4.3% | 150.1hPa | 2.7V | 00:00:00 | 01:01:21 | 00:00:00 | |
| ATIDSZ-14 | 2026-09-03 11:55:59 | 47.17256 | 19.52324 | 112° | 58km/h | 13929m | 5.1m/s | -53.2°C | 1.2% | 151.4hPa | 2.7V | 00:00:00 | 00:00:00 | 00:00:00 | |
| GYPAP8-17 | 2026-09-03 11:55:54 | 47.17282 | 19.52225 | 111° | 57km/h | 13901m | 3.6m/s | -53.0°C | 1.2% | 152.0hPa | 2.7V | 00:00:00 | 00:00:00 | 00:00:00 | |
| ATIDSZ-14 | 2026-09-03 11:55:40 | 47.17361 | 19.51937 | 117° | 53km/h | 13819m | 6.3m/s | -53.0°C | 1.3% | 154.0hPa | 2.7V | 00:00:00 | 00:00:00 | 00:00:00 | |
| PETON7-10 | 2026-09-03 11:55:38 | 47.17373 | 19.51901 | 120° | 53km/h | 13807m | 6.2m/s | -52.9°C | 4.3% | 154.2hPa | 2.7V | 00:00:00 | 00:00:00 | 00:00:00 | |
| PETON7-10 | 2026-09-03 11:55:23 | 47.17465 | 19.51644 | 124° | 47km/h | 13721m | 2.8m/s | -52.5°C | 4.3% | 156.3hPa | 2.7V | 00:00:00 | 01:00:35 | 00:00:00 | |
| ATIDSZ-14 | 2026-09-03 11:55:18 | 47.17499 | 19.51563 | 126° | 55km/h | 13693m | 4.9m/s | -52.5°C | 1.4% | 156.9hPa | 2.7V | 00:00:00 | 00:00:00 | 00:00:00 | |
| PETON7-10 | 2026-09-03 11:55:08 | 47.17573 | 19.51430 | 127° | 60km/h | 13630m | 4.5m/s | -52.3°C | 4.1% | 158.4hPa | 2.7V | 00:00:00 | 00:00:00 | 08:30:00 | |
| OE3JTB-15 | 2026-09-03 11:55:07 | 47.17581 | 19.51413 | 127° | 64km/h | 13624m | 7.6m/s | -52.4°C | 4.1% | 158.6hPa | 2.7V | 00:00:00 | 00:00:00 | 00:00:00 | |
| ATIDSZ-14 | 2026-09-03 11:54:56 | 47.17682 | 19.51250 | 136° | 58km/h | 13565m | 5.0m/s | -52.3°C | 1.5% | 160.1hPa | 2.7V | 00:00:00 | 00:00:00 | 00:00:00 | |
| PETON7-10 | 2026-09-03 11:54:53 | 47.17725 | 19.51182 | 132° | 64km/h | 13542m | 5.6m/s | -52.6°C | 4.2% | 160.6hPa | 2.7V | 00:00:00 | 00:00:00 | 00:00:00 | |
| GYPAP8-17 | 2026-09-03 11:54:51 | 47.17736 | 19.51164 | 133° | 64km/h | 13537m | 5.2m/s | -52.7°C | 1.5% | 160.8hPa | 2.7V | 00:00:00 | 00:00:00 | 00:00:00 | |
| ATIDSZ-14 | 2026-09-03 11:54:36 | 47.17910 | 19.50882 | 131° | 66km/h | 13448m | 5.3m/s | -52.4°C | 1.6% | 163.1hPa | 2.7V | 00:00:00 | 00:00:00 | 00:00:00 | |
| PETON7-10 | 2026-09-03 11:54:23 | 47.18058 | 19.50648 | 135° | 68km/h | 13375m | 5.0m/s | -52.5°C | 4.6% | 164.9hPa | 2.7V | 00:00:00 | 00:00:00 | 00:00:00 | |
| ATIDSZ-14 | 2026-09-03 11:54:13 | 47.18149 | 19.50477 | 125° | 71km/h | 13327m | 3.7m/s | -52.4°C | 1.7% | 166.2hPa | 2.7V | 00:00:00 | 00:00:00 | 00:00:00 | |
| PETON7-10 | 2026-09-03 11:54:08 | 47.18214 | 19.50358 | 128° | 68km/h | 13297m | 6.1m/s | -52.2°C | 4.6% | 166.9hPa | 2.7V | 00:00:00 | 00:00:00 | 00:00:00 | |
| OE3JTB-15 | 2026-09-03 11:54:07 | 47.18224 | 19.50338 | 127° | 69km/h | 13291m | 5.4m/s | -52.2°C | 4.6% | 167.0hPa | 2.7V | 00:00:00 | 00:00:00 | 08:30:00 | |
| PETON7-10 | 2026-09-03 11:53:53 | 47.18369 | 19.50062 | 127° | 71km/h | 13209m | 5.0m/s | -51.8°C | 4.7% | 169.2hPa | 2.7V | 00:00:00 | 00:59:05 | 00:00:00 | |
| ATIDSZ-14 | 2026-09-03 11:53:52 | 47.18369 | 19.50062 | 127° | 57km/h | 13209m | 5.0m/s | -51.8°C | 1.9% | 169.2hPa | 2.7V | 00:00:00 | 00:00:00 | 00:00:00 | |
| GYPAP8-17 | 2026-09-03 11:53:46 | 47.18434 | 19.49958 | 137° | 77km/h | 13171m | 4.2m/s | -51.8°C | 2.0% | 170.2hPa | 2.7V | 00:00:00 | 00:00:00 | 00:00:00 | |
| PETON7-10 | 2026-09-03 11:53:38 | 47.18553 | 19.49771 | 128° | 84km/h | 13118m | 4.8m/s | -52.1°C | 5.2% | 171.5hPa | 2.7V | 00:00:00 | 00:00:00 | 00:00:00 | |
| ATIDSZ-14 | 2026-09-03 11:53:31 | 47.18635 | 19.49638 | 132° | 86km/h | 13088m | 4.8m/s | -52.3°C | 2.7% | 172.4hPa | 2.7V | 00:00:00 | 00:00:00 | 00:00:00 | |
| PETON7-10 | 2026-09-03 11:53:22 | 47.18767 | 19.49377 | 131° | 82km/h | 13037m | 5.2m/s | -52.9°C | 7.5% | 173.7hPa | 2.7V | 00:00:00 | 00:00:00 | 00:00:00 | |
| ATIDSZ-14 | 2026-09-03 11:53:11 | 47.18906 | 19.49123 | 127° | 86km/h | 12977m | 5.9m/s | -55.1°C | 6.3% | 175.3hPa | 2.7V | 00:00:00 | 00:00:00 | 00:00:00 | |
| OE3JTB-15 | 2026-09-03 11:53:09 | 47.18932 | 19.49069 | 127° | 89km/h | 12965m | 7.2m/s | 0°C | 0% | 0hPa | 2.7V | 00:00:00 | 00:58:21 | 00:00:00 | |
| PETON7-10 | 2026-09-03 11:53:07 | 47.18960 | 19.49017 | 129° | 88km/h | 12954m | 4.0m/s | -55.2°C | 11.4% | 175.9hPa | 2.7V | 00:00:00 | 00:58:19 | 00:00:00 | |
| GYPAP8-17 | 2026-09-03 11:52:54 | 47.19149 | 19.48696 | 131° | 89km/h | 12884m | 5.3m/s | -54.9°C | 6.1% | 177.9hPa | 2.7V | 00:00:00 | 00:00:00 | 00:00:00 | |
| PETON7-10 | 2026-09-03 11:52:52 | 47.19178 | 19.48645 | 130° | 91km/h | 12873m | 4.2m/s | -54.8°C | 10.4% | 178.2hPa | 2.7V | 00:00:00 | 00:00:00 | 08:30:00 | |
| ATIDSZ-14 | 2026-09-03 11:52:49 | 47.19208 | 19.48592 | 130° | 97km/h | 12862m | 7.2m/s | -54.9°C | 5.9% | 178.6hPa | 2.7V | 00:00:00 | 00:00:00 | 00:00:00 | |
| PETON7-10 | 2026-09-03 11:52:37 | 47.19397 | 19.48259 | 123° | 84km/h | 12785m | 6.4m/s | -54.8°C | 9.5% | 180.6hPa | 2.7V | 00:00:00 | 00:00:00 | 00:00:00 | |
| ATIDSZ-14 | 2026-09-03 11:52:30 | 47.19474 | 19.48075 | 122° | 84km/h | 12746m | 3.2m/s | -54.6°C | 5.3% | 181.8hPa | 2.7V | 00:00:00 | 00:00:00 | 00:00:00 | |
| PETON7-10 | 2026-09-03 11:52:21 | 47.19589 | 19.47845 | 133° | 84km/h | 12690m | 5.7m/s | -54.9°C | 10.0% | 183.3hPa | 2.7V | 00:00:00 | 00:57:33 | 00:00:00 | |
| ATIDSZ-14 | 2026-09-03 11:52:07 | 47.19774 | 19.47543 | 132° | 84km/h | 12610m | 4.9m/s | -54.9°C | 6.4% | 185.6hPa | 2.7V | 00:00:00 | 00:00:00 | 00:00:00 | |
| PETON7-10 | 2026-09-03 11:52:06 | 47.19800 | 19.47498 | 130° | 78km/h | 12599m | 5.1m/s | -54.7°C | 11.1% | 185.9hPa | 2.7V | 00:00:00 | 00:00:00 | 00:00:00 | |
| GYPAP8-17 | 2026-09-03 11:51:40 | 47.20180 | 19.46998 | 140° | 78km/h | 12446m | 5.8m/s | -54.2°C | 9.5% | 190.6hPa | 2.9V | 00:00:00 | 00:00:00 | 00:00:00 | |
| PETON7-10 | 2026-09-03 11:51:36 | 47.20260 | 19.46908 | 144° | 88km/h | 12418m | 4.6m/s | -54.1°C | 16.8% | 191.3hPa | 2.9V | 00:00:00 | 00:56:48 | 00:00:00 | |
| PETON7-10 | 2026-09-03 11:51:21 | 47.20543 | 19.46654 | 151° | 99km/h | 12327m | 5.2m/s | -54.2°C | 22.0% | 194.0hPa | 2.9V | 00:00:00 | 00:00:00 | 00:00:00 | |
| PETON7-10 | 2026-09-03 11:51:06 | 47.20890 | 19.46429 | 156° | 122km/h | 12235m | 6.7m/s | -56.1°C | 34.4% | 196.7hPa | 2.9V | 00:00:00 | 00:00:00 | 00:00:00 | |
| ATIDSZ-14 | 2026-09-03 11:51:00 | 47.21017 | 19.46312 | 144° | 124km/h | 12190m | 8.3m/s | -57.4°C | 30.2% | 198.1hPa | 2.9V | 00:00:00 | 00:00:00 | 00:00:00 | |
| PETON7-10 | 2026-09-03 11:50:51 | 47.21271 | 19.46031 | 142° | 124km/h | 12127m | 7.5m/s | -57.7°C | 44.3% | 200.1hPa | 2.9V | 00:00:00 | 00:56:03 | 00:00:00 | |
| GYPAP8-17 | 2026-09-03 11:50:45 | 47.21408 | 19.45860 | 139° | 124km/h | 12092m | 4.5m/s | -57.6°C | 33.5% | 201.3hPa | 2.9V | 00:00:00 | 00:00:00 | 00:00:00 | |
| ATIDSZ-14 | 2026-09-03 11:50:39 | 47.21550 | 19.45660 | 139° | 128km/h | 12058m | 4.8m/s | -57.5°C | 33.7% | 202.4hPa | 2.9V | 00:00:00 | 00:00:00 | 00:00:00 | |
| PETON7-10 | 2026-09-03 11:50:36 | 47.21618 | 19.45570 | 138° | 122km/h | 12041m | 6.1m/s | -57.4°C | 46.1% | 202.9hPa | 2.9V | 00:00:00 | 00:00:00 | 08:30:00 | |
| PETON7-10 | 2026-09-03 11:50:21 | 47.21945 | 19.45083 | 133° | 113km/h | 11948m | 6.2m/s | -57.1°C | 47.1% | 205.9hPa | 2.9V | 00:00:00 | 00:00:00 | 00:00:00 | |
| ATIDSZ-14 | 2026-09-03 11:50:17 | 47.21995 | 19.44996 | 129° | 104km/h | 11927m | 5.9m/s | -57.1°C | 35.7% | 206.7hPa | 2.9V | 00:00:00 | 00:00:00 | 00:00:00 | |
| PETON7-10 | 2026-09-03 11:50:05 | 47.22272 | 19.44613 | 136° | 110km/h | 11832m | 3.7m/s | -56.3°C | 43.8% | 209.7hPa | 2.9V | 00:00:00 | 00:55:17 | 00:00:00 | |
| ATIDSZ-14 | 2026-09-03 11:49:56 | 47.22430 | 19.44407 | 138° | 111km/h | 11790m | 8.4m/s | -56.2°C | 30.4% | 211.1hPa | 2.9V | 00:00:00 | 00:00:00 | 00:00:00 | |
| PETON7-10 | 2026-09-03 11:49:50 | 47.22579 | 19.44206 | 138° | 108km/h | 11745m | 4.8m/s | -55.7°C | 38.1% | 212.6hPa | 2.9V | 00:00:00 | 00:00:00 | 00:00:00 | |
| ATIDSZ-14 | 2026-09-03 11:49:37 | 47.22840 | 19.43854 | 142° | 106km/h | 11666m | 2.5m/s | -55.5°C | 26.9% | 215.3hPa | 2.9V | 00:00:00 | 00:00:00 | 00:00:00 | |
| GYPAP8-17 | 2026-09-03 11:49:30 | 47.22982 | 19.43666 | 137° | 111km/h | 11626m | 3.3m/s | -55.5°C | 25.4% | 216.8hPa | 2.9V | 00:00:00 | 00:00:00 | 00:00:00 | |
| PETON7-10 | 2026-09-03 11:49:20 | 47.23188 | 19.43394 | 140° | 108km/h | 11566m | 5.4m/s | -55.0°C | 33.5% | 218.8hPa | 2.9V | 00:00:00 | 00:54:32 | 00:00:00 | |
| ATIDSZ-14 | 2026-09-03 11:49:16 | 47.23251 | 19.43314 | 141° | 104km/h | 11548m | 5.4m/s | -54.9°C | 24.1% | 219.3hPa | 2.9V | 00:00:00 | 00:00:00 | 00:00:00 | |
| PETON7-10 | 2026-09-03 11:49:05 | 47.23505 | 19.43010 | 144° | 104km/h | 11463m | 9.3m/s | -54.1°C | 30.5% | 222.3hPa | 2.9V | 00:00:00 | 00:00:00 | 00:00:00 | |
| ATIDSZ-14 | 2026-09-03 11:48:54 | 47.23719 | 19.42788 | 144° | 93km/h | 11389m | 4.5m/s | -53.5°C | 21.3% | 224.9hPa | 2.9V | 00:00:00 | 00:00:00 | 00:00:00 | |
| PETON7-10 | 2026-09-03 11:48:50 | 47.23818 | 19.42667 | 143° | 110km/h | 11361m | 9.1m/s | -53.2°C | 28.3% | 225.9hPa | 2.9V | 00:00:00 | 00:00:00 | 00:00:00 | |
| PETON7-10 | 2026-09-03 11:48:35 | 47.24152 | 19.42309 | 142° | 108km/h | 11266m | 4.7m/s | -52.3°C | 26.5% | 229.2hPa | 2.9V | 00:00:00 | 00:53:47 | 00:00:00 | |
| ATIDSZ-14 | 2026-09-03 11:48:33 | 47.24174 | 19.42284 | 142° | 108km/h | 11261m | 5.2m/s | -52.3°C | 19.3% | 229.4hPa | 2.9V | 00:00:00 | 00:00:00 | 00:00:00 | |
| PETON7-10 | 2026-09-03 11:48:20 | 47.24494 | 19.41991 | 145° | 111km/h | 11181m | 6.0m/s | -51.6°C | 27.3% | 232.2hPa | 2.9V | 00:00:00 | 00:00:00 | 08:30:00 | |
| ATIDSZ-14 | 2026-09-03 11:48:13 | 47.24623 | 19.41851 | 147° | 130km/h | 11140m | 9.5m/s | -51.5°C | 20.6% | 233.6hPa | 2.9V | 00:00:00 | 00:00:00 | 00:00:00 | |
| PETON7-10 | 2026-09-03 11:48:05 | 47.24856 | 19.41668 | 146° | 124km/h | 11076m | 6.2m/s | -51.2°C | 31.0% | 236.0hPa | 2.9V | 00:00:00 | 00:00:00 | 00:00:00 | |
| ATIDSZ-14 | 2026-09-03 11:47:53 | 47.25175 | 19.41371 | 152° | 115km/h | 10987m | 7.4m/s | -51.5°C | 29.7% | 239.2hPa | 2.9V | 00:00:00 | 00:00:00 | 00:00:00 | |
| GYPAP8-17 | 2026-09-03 11:47:51 | 47.25227 | 19.41326 | 149° | 122km/h | 10973m | 9.0m/s | -51.6°C | 30.6% | 239.7hPa | 2.9V | 00:00:00 | 00:00:00 | 00:00:00 | |
| PETON7-10 | 2026-09-03 11:47:50 | 47.25254 | 19.41300 | 147° | 155km/h | 10965m | 7.8m/s | -51.6°C | 40.1% | 239.9hPa | 2.9V | 00:00:00 | 00:53:02 | 00:00:00 | |
| PETON7-10 | 2026-09-03 11:47:35 | 47.25779 | 19.40876 | 152° | 153km/h | 10851m | 4.8m/s | -51.5°C | 44.6% | 244.2hPa | 2.9V | 00:00:00 | 00:00:00 | 00:00:00 | |
| ATIDSZ-14 | 2026-09-03 11:47:32 | 47.25849 | 19.40819 | 152° | 157km/h | 10841m | 5.1m/s | -51.5°C | 35.0% | 244.7hPa | 2.7V | 00:00:00 | 00:00:00 | 00:00:00 | |
| PETON7-10 | 2026-09-03 11:47:20 | 47.26279 | 19.40435 | 147° | 148km/h | 10765m | 7.4m/s | -51.1°C | 48.4% | 247.5hPa | 2.7V | 00:00:00 | 00:00:00 | 00:00:00 | |
| ATIDSZ-14 | 2026-09-03 11:47:12 | 47.26532 | 19.40215 | 151° | 148km/h | 10719m | 6.4m/s | -50.9°C | 42.2% | 249.3hPa | 2.7V | 00:00:00 | 00:00:00 | 00:00:00 | |
| PETON7-10 | 2026-09-03 11:47:04 | 47.26792 | 19.39982 | 149° | 144km/h | 10662m | 4.8m/s | -50.5°C | 54.7% | 251.5hPa | 2.7V | 00:00:00 | 00:52:16 | 00:00:00 | |
| ATIDSZ-14 | 2026-09-03 11:46:51 | 47.27157 | 19.39641 | 148° | 144km/h | 10586m | 7.2m/s | -50.1°C | 43.9% | 254.4hPa | 2.7V | 00:00:00 | 00:00:00 | 00:00:00 | |
| PETON7-10 | 2026-09-03 11:46:49 | 47.27249 | 19.39553 | 148° | 142km/h | 10563m | 6.2m/s | -49.9°C | 55.5% | 255.2hPa | 2.7V | 00:00:00 | 00:00:00 | 00:00:00 | |
| GYPAP8-17 | 2026-09-03 11:46:48 | 47.27280 | 19.39524 | 147° | 148km/h | 10555m | 8.2m/s | -49.9°C | 44.4% | 255.5hPa | 2.7V | 00:00:00 | 00:00:00 | 00:00:00 | |
| PETON7-10 | 2026-09-03 11:46:34 | 47.27699 | 19.39114 | 148° | 146km/h | 10474m | 6.7m/s | -49.1°C | 54.4% | 258.7hPa | 2.7V | 00:00:00 | 00:00:00 | 00:00:00 | |
| ATIDSZ-14 | 2026-09-03 11:46:30 | 47.27800 | 19.39022 | 150° | 153km/h | 10455m | 2.9m/s | -49.0°C | 44.8% | 259.5hPa | 2.7V | 00:00:00 | 00:00:00 | 00:00:00 | |
| PETON7-10 | 2026-09-03 11:46:19 | 47.28169 | 19.38684 | 148° | 135km/h | 10384m | 5.5m/s | -48.3°C | 52.6% | 262.2hPa | 2.7V | 00:00:00 | 00:51:31 | 00:00:00 | |
| ATIDSZ-14 | 2026-09-03 11:46:10 | 47.28405 | 19.38480 | 151° | 119km/h | 10338m | 4.1m/s | -47.9°C | 42.7% | 264.2hPa | 2.7V | 00:00:00 | 00:00:00 | 00:00:00 | |
| PETON7-10 | 2026-09-03 11:46:04 | 47.28611 | 19.38310 | 153° | 135km/h | 10296m | 6.6m/s | -47.6°C | 50.5% | 266.0hPa | 2.7V | 00:00:00 | 00:00:00 | 08:30:00 | |
| PETON7-10 | 2026-09-03 11:45:49 | 47.29049 | 19.37938 | 150° | 124km/h | 10190m | 8.0m/s | -46.7°C | 45.7% | 270.2hPa | 2.9V | 00:00:00 | 00:00:00 | 00:00:00 | |
| ATIDSZ-14 | 2026-09-03 11:45:48 | 47.29049 | 19.37938 | 151° | 113km/h | 10190m | 8.1m/s | -46.7°C | 37.2% | 270.2hPa | 2.9V | 00:00:00 | 00:00:00 | 00:00:00 | |
| GYPAP8-17 | 2026-09-03 11:45:45 | 47.29144 | 19.37838 | 147° | 122km/h | 10164m | 7.6m/s | -46.5°C | 35.3% | 271.4hPa | 2.9V | 00:00:00 | 00:00:00 | 00:00:00 | |
| PETON7-10 | 2026-09-03 11:45:34 | 47.29463 | 19.37597 | 152° | 122km/h | 10084m | 6.0m/s | -45.8°C | 38.7% | 274.4hPa | 2.9V | 00:00:00 | 00:50:46 | 00:00:00 | |
| ATIDSZ-14 | 2026-09-03 11:45:28 | 47.29619 | 19.37460 | 158° | 117km/h | 10045m | 7.0m/s | -45.7°C | 26.8% | 276.2hPa | 2.9V | 00:00:00 | 00:00:00 | 00:00:00 | |
| PETON7-10 | 2026-09-03 11:45:19 | 47.29866 | 19.37280 | 151° | 113km/h | 9982m | 7.0m/s | -45.1°C | 28.5% | 278.7hPa | 2.9V | 00:00:00 | 00:00:00 | 00:00:00 | |
| ATIDSZ-14 | 2026-09-03 11:45:07 | 47.30180 | 19.37068 | 149° | 111km/h | 9912m | 7.8m/s | -44.5°C | 20.3% | 281.6hPa | 2.9V | 00:00:00 | 00:00:00 | 00:00:00 | |
| PETON7-10 | 2026-09-03 11:45:04 | 47.30253 | 19.37008 | 154° | 110km/h | 9892m | 4.9m/s | -44.2°C | 26.8% | 282.5hPa | 2.9V | 00:00:00 | 00:00:00 | 00:00:00 | |
| GYPAP8-17 | 2026-09-03 11:44:50 | 47.30584 | 19.36772 | 155° | 102km/h | 9813m | 8.3m/s | -43.7°C | 21.4% | 285.9hPa | 2.9V | 00:00:00 | 00:00:00 | 00:00:00 | |
| PETON7-10 | 2026-09-03 11:44:49 | 47.30628 | 19.36740 | 156° | 110km/h | 9799m | 4.5m/s | -43.5°C | 26.5% | 286.5hPa | 2.9V | 00:00:00 | 00:50:01 | 00:00:00 | |
| ATIDSZ-14 | 2026-09-03 11:44:46 | 47.30673 | 19.36707 | 154° | 106km/h | 9787m | 5.8m/s | -43.4°C | 20.7% | 287.1hPa | 2.9V | 00:00:00 | 00:00:00 | 00:00:00 | |
| PETON7-10 | 2026-09-03 11:44:34 | 47.31004 | 19.36485 | 153° | 102km/h | 9706m | 4.0m/s | -42.7°C | 25.6% | 290.5hPa | 2.9V | 00:00:00 | 00:00:00 | 00:00:00 | |
| ATIDSZ-14 | 2026-09-03 11:44:25 | 47.31195 | 19.36355 | 154° | 97km/h | 9659m | 3.8m/s | -42.4°C | 21.6% | 292.4hPa | 2.9V | 00:00:00 | 00:00:00 | 00:00:00 | |
| PETON7-10 | 2026-09-03 11:44:19 | 47.31358 | 19.36258 | 162° | 108km/h | 9621m | 4.4m/s | -42.0°C | 26.7% | 294.2hPa | 2.9V | 00:00:00 | 00:00:00 | 00:00:00 | |
| OE3JTB-15 | 2026-09-03 11:44:15 | 47.31473 | 19.36191 | 156° | 64km/h | 9595m | 7.6m/s | 0°C | 0% | 0hPa | 2.9V | 00:00:00 | 00:00:00 | 00:00:00 | |
| PETON7-10 | 2026-09-03 11:44:04 | 47.31737 | 19.36029 | 158° | 104km/h | 9523m | 9.2m/s | -41.2°C | 23.2% | 298.5hPa | 2.9V | 00:00:00 | 00:49:16 | 00:00:00 | |
| PETON7-10 | 2026-09-03 11:43:49 | 47.32106 | 19.35833 | 157° | 106km/h | 9439m | 5.8m/s | -40.5°C | 20.2% | 302.2hPa | 2.9V | 00:00:00 | 00:00:00 | 08:30:00 | |
| ATIDSZ-14 | 2026-09-03 11:43:44 | 47.32209 | 19.35787 | 169° | 108km/h | 9416m | 5.4m/s | -40.3°C | 15.8% | 303.1hPa | 2.9V | 00:00:00 | 00:00:00 | 00:00:00 | |
| GYPAP8-17 | 2026-09-03 11:43:41 | 47.32288 | 19.35758 | 167° | 106km/h | 9402m | 8.3m/s | -40.2°C | 15.0% | 303.9hPa | 2.9V | 00:00:00 | 00:00:00 | 00:00:00 | |
| PETON7-10 | 2026-09-03 11:43:34 | 47.32487 | 19.35654 | 164° | 100km/h | 9350m | 3.5m/s | -39.7°C | 17.8% | 306.2hPa | 2.9V | 00:00:00 | 00:00:00 | 00:00:00 | |
| ATIDSZ-14 | 2026-09-03 11:43:23 | 47.32720 | 19.35522 | 159° | 104km/h | 9288m | 5.6m/s | -39.2°C | 13.5% | 309.0hPa | 2.9V | 00:00:00 | 00:00:00 | 00:00:00 | |
| PETON7-10 | 2026-09-03 11:43:19 | 47.32841 | 19.35469 | 167° | 89km/h | 9256m | 7.9m/s | -38.9°C | 16.4% | 310.3hPa | 2.9V | 00:00:00 | 00:48:31 | 00:00:00 | |
| PETON7-10 | 2026-09-03 11:43:04 | 47.33174 | 19.35321 | 169° | 89km/h | 9164m | 8.1m/s | -38.4°C | 20.4% | 314.5hPa | 2.9V | 00:00:00 | 00:00:00 | 00:00:00 | |
| ATIDSZ-14 | 2026-09-03 11:43:03 | 47.33174 | 19.35321 | 170° | 95km/h | 9164m | 8.1m/s | -38.5°C | 16.8% | 314.6hPa | 2.9V | 00:00:00 | 00:00:00 | 00:00:00 | |
| PETON7-10 | 2026-09-03 11:42:49 | 47.33505 | 19.35205 | 175° | 84km/h | 9069m | 9.6m/s | -37.7°C | 17.4% | 318.9hPa | 2.9V | 00:00:00 | 00:00:00 | 00:00:00 | |
| ATIDSZ-14 | 2026-09-03 11:42:42 | 47.33643 | 19.35148 | 157° | 99km/h | 9035m | 8.5m/s | -37.4°C | 13.5% | 320.6hPa | 2.9V | 00:00:00 | 00:00:00 | 00:00:00 | |
| GYPAP8-17 | 2026-09-03 11:42:38 | 47.33724 | 19.35093 | 158° | 77km/h | 9014m | 4.5m/s | -37.2°C | 0% | 321.6hPa | 2.9V | 00:00:00 | 00:00:00 | 00:00:00 | |
| PETON7-10 | 2026-09-03 11:42:34 | 47.33812 | 19.35055 | 169° | 88km/h | 8982m | 5.8m/s | -37.0°C | 17.3% | 323.1hPa | 2.9V | 00:00:00 | 00:47:46 | 00:00:00 | |
| ATIDSZ-14 | 2026-09-03 11:42:21 | 47.34073 | 19.34941 | 164° | 78km/h | 8907m | 6.6m/s | -36.6°C | 14.8% | 326.6hPa | 2.9V | 00:00:00 | 00:00:00 | 00:00:00 | |
| PETON7-10 | 2026-09-03 11:42:19 | 47.34125 | 19.34908 | 150° | 75km/h | 8885m | 7.7m/s | -36.4°C | 18.7% | 327.6hPa | 2.9V | 00:00:00 | 00:00:00 | 00:00:00 | |
| PETON7-10 | 2026-09-03 11:42:04 | 47.34391 | 19.34753 | 150° | 78km/h | 8789m | 6.3m/s | -35.6°C | 19.6% | 332.1hPa | 2.9V | 00:00:00 | 00:00:00 | 00:00:00 | |
| ATIDSZ-14 | 2026-09-03 11:42:01 | 47.34427 | 19.34726 | 158° | 82km/h | 8778m | 7.5m/s | -35.6°C | 16.5% | 332.8hPa | 2.9V | 00:00:00 | 00:00:00 | 00:00:00 | |
| PETON7-10 | 2026-09-03 11:41:47 | 47.34695 | 19.34557 | 153° | 73km/h | 8690m | 7.6m/s | -35.2°C | 24.5% | 336.9hPa | 2.9V | 00:00:00 | 00:46:59 | 00:00:00 | |
| ATIDSZ-14 | 2026-09-03 11:41:40 | 47.34789 | 19.34477 | 151° | 80km/h | 8653m | 5.9m/s | -35.0°C | 21.9% | 338.7hPa | 2.9V | 00:00:00 | 00:00:00 | 00:00:00 | |
| GYPAP8-17 | 2026-09-03 11:41:33 | 47.34899 | 19.34370 | 142° | 71km/h | 8615m | 3.7m/s | -34.7°C | 0% | 340.7hPa | 2.9V | 00:00:00 | 00:00:00 | 00:00:00 | |
| PETON7-10 | 2026-09-03 11:41:32 | 47.34925 | 19.34335 | 136° | 71km/h | 8601m | 6.7m/s | -34.5°C | 24.3% | 341.3hPa | 2.9V | 00:00:00 | 00:00:00 | 08:30:00 | |
| ATIDSZ-14 | 2026-09-03 11:41:21 | 47.35096 | 19.34191 | 135° | 71km/h | 8538m | 7.8m/s | -34.1°C | 20.0% | 344.4hPa | 2.9V | 00:00:00 | 00:00:00 | 00:00:00 | |
| PETON7-10 | 2026-09-03 11:41:17 | 47.35151 | 19.34124 | 151° | 62km/h | 8514m | 6.5m/s | -33.9°C | 23.5% | 345.5hPa | 2.9V | 00:00:00 | 00:00:00 | 00:00:00 | |
| PETON7-10 | 2026-09-03 11:41:02 | 47.35347 | 19.33936 | 145° | 62km/h | 8414m | 7.2m/s | -33.3°C | 33.3% | 350.4hPa | 2.9V | 00:00:00 | 00:46:14 | 00:00:00 | |
| ATIDSZ-14 | 2026-09-03 11:40:59 | 47.35372 | 19.33904 | 136° | 68km/h | 8402m | 6.9m/s | -33.3°C | 30.2% | 351.0hPa | 2.9V | 00:00:00 | 00:00:00 | 00:00:00 | |
| PETON7-10 | 2026-09-03 11:40:47 | 47.35532 | 19.33734 | 143° | 60km/h | 8322m | 6.8m/s | -32.6°C | 37.5% | 355.0hPa | 2.9V | 00:00:00 | 00:00:00 | 00:00:00 | |
| ATIDSZ-14 | 2026-09-03 11:40:39 | 47.35624 | 19.33645 | 150° | 62km/h | 8273m | 5.2m/s | -32.3°C | 33.9% | 357.5hPa | 2.7V | 00:00:00 | 00:00:00 | 00:00:00 | |
| GYPAP8-17 | 2026-09-03 11:40:32 | 47.35715 | 19.33534 | 137° | 53km/h | 8226m | 9.3m/s | -32.0°C | 0% | 360.2hPa | 2.7V | 00:00:00 | 00:00:00 | 00:00:00 | |
| ATIDSZ-14 | 2026-09-03 11:40:18 | 47.35864 | 19.33343 | 146° | 58km/h | 8143m | 9.0m/s | -31.4°C | 38.8% | 364.3hPa | 2.7V | 00:00:00 | 00:00:00 | 00:00:00 | |
| PETON7-10 | 2026-09-03 11:40:17 | 47.35885 | 19.33319 | 137° | 53km/h | 8127m | 8.7m/s | -31.2°C | 42.6% | 365.1hPa | 2.7V | 00:00:00 | 00:45:29 | 00:00:00 | |
| PETON7-10 | 2026-09-03 11:40:02 | 47.36014 | 19.33090 | 132° | 55km/h | 8023m | 9.2m/s | -30.5°C | 34.9% | 370.3hPa | 2.7V | 00:00:00 | 00:00:00 | 00:00:00 | |
| ATIDSZ-14 | 2026-09-03 11:39:58 | 47.36045 | 19.33046 | 136° | 53km/h | 8002m | 6.2m/s | -30.3°C | 29.6% | 371.5hPa | 2.9V | 00:00:00 | 00:00:00 | 00:00:00 | |
| PETON7-10 | 2026-09-03 11:39:47 | 47.36136 | 19.32843 | 141° | 47km/h | 7914m | 7.0m/s | -29.5°C | 31.5% | 375.9hPa | 2.9V | 00:00:00 | 00:00:00 | 00:00:00 | |
| ATIDSZ-14 | 2026-09-03 11:39:37 | 47.36214 | 19.32742 | 124° | 46km/h | 7857m | 8.1m/s | -29.0°C | 26.4% | 379.1hPa | 2.9V | 00:00:00 | 00:00:00 | 00:00:00 | |
| PETON7-10 | 2026-09-03 11:39:32 | 47.36271 | 19.32660 | 136° | 46km/h | 7820m | 6.6m/s | -28.6°C | 29.4% | 381.1hPa | 2.9V | 00:00:00 | 00:44:44 | 00:00:00 | |
| GYPAP8-17 | 2026-09-03 11:39:28 | 47.36295 | 19.32617 | 124° | 38km/h | 7802m | 7.2m/s | -28.4°C | 0% | 382.1hPa | 2.9V | 00:00:00 | 00:00:00 | 00:00:00 | |
| PETON7-10 | 2026-09-03 11:39:18 | 47.36395 | 19.32479 | 141° | 49km/h | 7728m | 9.2m/s | -27.7°C | 26.6% | 386.1hPa | 2.9V | 00:00:00 | 00:00:00 | 08:30:00 | |
| PETON7-10 | 2026-09-03 11:39:02 | 47.36524 | 19.32287 | 131° | 46km/h | 7617m | 6.9m/s | -26.6°C | 24.5% | 392.0hPa | 2.9V | 00:00:00 | 00:00:00 | 00:00:00 | |
| ATIDSZ-14 | 2026-09-03 11:38:56 | 47.36572 | 19.32215 | 144° | 44km/h | 7585m | 7.3m/s | -26.4°C | 22.2% | 393.9hPa | 2.9V | 00:00:00 | 00:00:00 | 00:00:00 | |
| PETON7-10 | 2026-09-03 11:38:47 | 47.36647 | 19.32111 | 140° | 57km/h | 7517m | 5.5m/s | -25.7°C | 23.8% | 397.5hPa | 2.9V | 00:00:00 | 00:43:59 | 00:00:00 | |
| ATIDSZ-14 | 2026-09-03 11:38:35 | 47.36755 | 19.31948 | 145° | 57km/h | 7451m | 6.4m/s | -25.1°C | 17.4% | 401.3hPa | 2.9V | 00:00:00 | 00:00:00 | 00:00:00 | |
| OE3JTB-15 | 2026-09-03 11:38:34 | 47.36791 | 19.31909 | 140° | 53km/h | 7431m | 7.6m/s | 0°C | 0% | 0hPa | 2.9V | 00:00:00 | 00:00:00 | 00:00:00 | |
| PETON7-10 | 2026-09-03 11:38:32 | 47.36803 | 19.31893 | 137° | 53km/h | 7424m | 7.9m/s | -24.8°C | 18.8% | 402.8hPa | 2.9V | 00:00:00 | 00:00:00 | 00:00:00 | |
| GYPAP8-17 | 2026-09-03 11:38:26 | 47.36858 | 19.31805 | 131° | 64km/h | 7391m | 9.3m/s | -24.5°C | 0% | 404.4hPa | 0V | 00:00:00 | 00:00:00 | 00:00:00 | |
| PETON7-10 | 2026-09-03 11:38:17 | 47.36946 | 19.31686 | 149° | 51km/h | 7331m | 4.4m/s | -24.0°C | 13.2% | 407.8hPa | 0V | 00:00:00 | 00:00:00 | 00:00:00 | |
| ATIDSZ-14 | 2026-09-03 11:38:15 | 47.36954 | 19.31677 | 145° | 42km/h | 7327m | 5.1m/s | -24.0°C | 11.6% | 408.1hPa | 0V | 00:00:00 | 00:00:00 | 00:00:00 | |
| OE3JTB-15 | 2026-09-03 11:38:04 | 47.37060 | 19.31512 | 135° | 55km/h | 7251m | 6.6m/s | 0°C | 0% | 0hPa | 0V | 00:00:00 | 00:00:00 | 00:00:00 | |
| PETON7-10 | 2026-09-03 11:38:02 | 47.37081 | 19.31481 | 138° | 55km/h | 7237m | 7.9m/s | 0°C | 0% | 0hPa | 0V | 00:00:00 | 00:43:14 | 00:00:00 | |
| PETON7-10 | 2026-09-03 11:37:47 | 47.37233 | 19.31271 | 143° | 55km/h | 7132m | 7.5m/s | 0°C | 0% | 0hPa | 0V | 00:00:00 | 00:00:00 | 00:00:00 | |
| OE3JTB-15 | 2026-09-03 11:37:35 | 47.37355 | 19.31111 | 130° | 57km/h | 7055m | 8.5m/s | 0°C | 0% | 0hPa | 0V | 00:00:00 | 00:42:47 | 00:00:00 | |
| ATIDSZ-14 | 2026-09-03 11:37:34 | 47.37355 | 19.31111 | 130° | 57km/h | 7055m | 8.5m/s | -22.1°C | 8.0% | 423.7hPa | 0V | 00:00:00 | 00:00:00 | 00:00:00 | |
| PETON7-10 | 2026-09-03 11:37:32 | 47.37384 | 19.31057 | 131° | 58km/h | 7033m | 8.8m/s | 0°C | 0% | 0hPa | 0V | 00:00:00 | 00:00:00 | 00:00:00 | |
| GYPAP8-17 | 2026-09-03 11:37:26 | 47.37429 | 19.30973 | 134° | 60km/h | 6997m | 6.5m/s | -21.7°C | 0% | 427.0hPa | 0V | 00:00:00 | 00:00:00 | 00:00:00 | |
| PETON7-10 | 2026-09-03 11:37:17 | 47.37538 | 19.30832 | 130° | 57km/h | 6929m | 7.1m/s | 0°C | 0% | 0hPa | 0V | 00:00:00 | 00:42:29 | 00:00:00 | |
| OE3JTB-15 | 2026-09-03 11:37:06 | 47.37656 | 19.30670 | 138° | 55km/h | 6853m | 7.3m/s | 0°C | 0% | 0hPa | 0V | 00:00:00 | 00:00:00 | 00:00:00 | |
| PETON7-10 | 2026-09-03 11:37:02 | 47.37698 | 19.30616 | 137° | 57km/h | 6825m | 7.9m/s | 0°C | 0% | 0hPa | 0V | 00:00:00 | 00:00:00 | 00:00:00 | |
| ATIDSZ-14 | 2026-09-03 11:36:53 | 47.37786 | 19.30474 | 138° | 60km/h | 6761m | 7.1m/s | -19.9°C | 21.8% | 440.7hPa | 0V | 00:00:00 | 00:00:00 | 00:00:00 | |
| ATIDSZ-14 | 2026-09-03 11:36:32 | 47.38003 | 19.30181 | 138° | 60km/h | 6629m | 7.3m/s | -18.9°C | 20.0% | 448.6hPa | 0V | 00:00:00 | 00:00:00 | 00:00:00 | |
| GYPAP8-17 | 2026-09-03 11:36:29 | 47.38045 | 19.30123 | 134° | 53km/h | 6602m | 7.6m/s | 0°C | 0% | 450.1hPa | 0V | 00:00:00 | 00:00:00 | 00:00:00 | |
| ATIDSZ-14 | 2026-09-03 11:36:11 | 47.38215 | 19.29869 | 136° | 57km/h | 6482m | 7.9m/s | -18.3°C | 40.7% | 457.5hPa | 0V | 00:00:00 | 00:00:00 | 00:00:00 | |
| ATIDSZ-14 | 2026-09-03 11:35:50 | 47.38408 | 19.29589 | 136° | 51km/h | 6333m | 8.7m/s | -17.3°C | 39.1% | 466.7hPa | 0V | 00:00:00 | 00:00:00 | 00:00:00 | |
| ATIDSZ-14 | 2026-09-03 11:35:30 | 47.38557 | 19.29324 | 137° | 57km/h | 6204m | 4.9m/s | -16.9°C | 56.7% | 474.8hPa | 0V | 00:00:00 | 00:00:00 | 00:00:00 | |
| GYPAP8-17 | 2026-09-03 11:35:20 | 47.38628 | 19.29187 | 126° | 42km/h | 6144m | 5.2m/s | 0°C | 0% | 0hPa | 0V | 00:00:00 | 00:00:00 | 00:00:00 | |
| ATIDSZ-14 | 2026-09-03 11:35:09 | 47.38701 | 19.29026 | 120° | 49km/h | 6074m | 5.8m/s | -16.0°C | 59.0% | 483.2hPa | 0V | 00:00:00 | 00:00:00 | 00:00:00 | |
| ATIDSZ-14 | 2026-09-03 11:34:30 | 47.38964 | 19.28443 | 111° | 35km/h | 5812m | 8.7m/s | 0°C | 0% | 0hPa | 0V | 00:00:00 | 00:00:00 | 00:00:00 | |
| GYPAP8-17 | 2026-09-03 11:34:22 | 47.38990 | 19.28343 | 113° | 44km/h | 5761m | 8.3m/s | 0°C | 0% | 0hPa | 0V | 00:00:00 | 00:00:00 | 00:00:00 | |
| ATIDSZ-14 | 2026-09-03 11:34:08 | 47.39047 | 19.28162 | 128° | 42km/h | 5652m | 7.8m/s | 0°C | 0% | 0hPa | 0V | 00:00:00 | 00:00:00 | 00:00:00 | |
| ATIDSZ-14 | 2026-09-03 11:33:48 | 47.39175 | 19.27849 | 119° | 49km/h | 5494m | 8.4m/s | 0°C | 0% | 0hPa | 0V | 00:00:00 | 00:00:00 | 00:00:00 | |
| GYPAP8-17 | 2026-09-03 11:33:37 | 47.39243 | 19.27686 | 121° | 47km/h | 5406m | 8.0m/s | 0°C | 0% | 0hPa | 0V | 00:00:00 | 00:00:00 | 00:00:00 | |
| ATIDSZ-14 | 2026-09-03 11:33:27 | 47.39303 | 19.27533 | 118° | 47km/h | 5329m | 8.0m/s | 0°C | 0% | 0hPa | 0V | 00:00:00 | 00:00:00 | 00:00:00 | |
| ATIDSZ-14 | 2026-09-03 11:33:07 | 47.39424 | 19.27229 | 117° | 46km/h | 5176m | 7.8m/s | 0°C | 0% | 0hPa | 0V | 00:00:00 | 00:00:00 | 00:00:00 | |
| GYPAP8-17 | 2026-09-03 11:32:52 | 47.39517 | 19.26983 | 124° | 47km/h | 5046m | 8.6m/s | 0°C | 0% | 0hPa | 0V | 00:00:00 | 00:00:00 | 00:00:00 | |
| GYPAP8-17 | 2026-09-03 11:32:07 | 47.39744 | 19.26414 | 134° | 49km/h | 4730m | 6.8m/s | 0°C | 0% | 0hPa | 0V | 00:00:00 | 00:00:00 | 00:00:00 | |
| ATIDSZ-14 | 2026-09-03 11:32:00 | 47.39788 | 19.26301 | 100° | 46km/h | 4688m | 9.1m/s | 0°C | 0% | 0hPa | 0V | 00:00:00 | 00:00:00 | 00:00:00 | |
| ATIDSZ-14 | 2026-09-03 11:30:05 | 47.40191 | 19.24541 | 118° | 46km/h | 3976m | 9.2m/s | 0°C | 0% | 0hPa | 0V | 00:00:00 | 00:00:00 | 00:00:00 | |
| ATIDSZ-14 | 2026-09-03 11:29:10 | 47.40396 | 19.23743 | 116° | 49km/h | 3627m | 6.9m/s | 0°C | 0% | 0hPa | 0V | 00:00:00 | 00:00:00 | 00:00:00 | |
| ATIDSZ-14 | 2026-09-03 11:28:48 | 47.40498 | 19.23407 | 117° | 49km/h | 3488m | 7.8m/s | 0°C | 0% | 0hPa | 0V | 00:00:00 | 00:00:00 | 00:00:00 | |
| ATIDSZ-14 | 2026-09-03 11:28:27 | 47.40594 | 19.23093 | 124° | 47km/h | 3353m | 4.8m/s | 0°C | 0% | 0hPa | 0V | 00:00:00 | 00:00:00 | 00:00:00 | |
| OM5KV | 2026-09-03 11:28:18 | 47.40630 | 19.22965 | 113° | 46km/h | 3300m | 7.8m/s | 0.3°C | 63.0% | 690.1hPa | 0V | 00:00:00 | 00:00:00 | 00:00:00 | |
| OM5KV | 2026-09-03 11:28:06 | 47.40680 | 19.22790 | 111° | 44km/h | 3221m | 5.0m/s | 0.9°C | 40.9% | 696.9hPa | 0V | 00:00:00 | 00:00:00 | 00:00:00 | |
| ATIDSZ-14 | 2026-09-03 11:28:03 | 47.40689 | 19.22749 | 117° | 35km/h | 3203m | 7.0m/s | 0°C | 0% | 0hPa | 0V | 00:00:00 | 00:00:00 | 00:00:00 | |
| OM5KV | 2026-09-03 11:27:43 | 47.40782 | 19.22462 | 112° | 35km/h | 3090m | 6.3m/s | 2.1°C | 36.0% | 708.4hPa | 0V | 00:00:00 | 00:00:00 | 00:00:00 | |
| ATIDSZ-14 | 2026-09-03 11:27:41 | 47.40790 | 19.22438 | 120° | 37km/h | 3078m | 7.0m/s | 0°C | 0% | 0hPa | 0V | 00:00:00 | 00:00:00 | 00:00:00 | |
| OM5KV | 2026-09-03 11:27:37 | 47.40812 | 19.22376 | 114° | 44km/h | 3057m | 6.4m/s | 2.4°C | 36.3% | 711.4hPa | 0V | 00:00:00 | 00:00:00 | 00:00:00 | |
| OM5KV | 2026-09-03 11:27:30 | 47.40843 | 19.22281 | 114° | 42km/h | 3020m | 6.7m/s | 2.7°C | 37.5% | 714.7hPa | 0V | 00:00:00 | 00:00:00 | 00:00:00 | |
| OM5KV | 2026-09-03 11:27:24 | 47.40868 | 19.22198 | 105° | 42km/h | 2985m | 5.7m/s | 2.9°C | 39.9% | 717.6hPa | 0V | 00:00:00 | 00:00:00 | 00:00:00 | |
| ATIDSZ-14 | 2026-09-03 11:27:19 | 47.40887 | 19.22136 | 121° | 40km/h | 2957m | 6.5m/s | 0°C | 0% | 0hPa | 0V | 00:00:00 | 00:00:00 | 00:00:00 | |
| OM5KV | 2026-09-03 11:27:07 | 47.40929 | 19.21978 | 109° | 33km/h | 2896m | 5.3m/s | 3.2°C | 39.3% | 725.5hPa | 0V | 00:00:00 | 00:00:00 | 00:00:00 | |
| OM5KV | 2026-09-03 11:27:02 | 47.40944 | 19.21908 | 113° | 38km/h | 2869m | 4.6m/s | 3.4°C | 37.6% | 728.1hPa | 0V | 00:00:00 | 00:00:00 | 00:00:00 | |
| ATIDSZ-14 | 2026-09-03 11:26:59 | 47.40955 | 19.21864 | 109° | 42km/h | 2853m | 3.7m/s | 0°C | 0% | 0hPa | 0V | 00:00:00 | 00:00:00 | 00:00:00 | |
| OM5KV | 2026-09-03 11:26:56 | 47.40962 | 19.21827 | 111° | 29km/h | 2837m | 7.1m/s | 3.6°C | 37.7% | 730.9hPa | 0V | 00:00:00 | 00:00:00 | 00:00:00 | |
| OM5KV | 2026-09-03 11:26:51 | 47.40984 | 19.21750 | 107° | 31km/h | 2804m | 5.9m/s | 3.9°C | 36.8% | 733.7hPa | 0V | 00:00:00 | 00:00:00 | 00:00:00 | |
| OM5KV | 2026-09-03 11:26:44 | 47.41004 | 19.21685 | 103° | 35km/h | 2775m | 5.2m/s | 4.0°C | 37.8% | 736.2hPa | 0V | 00:00:00 | 00:00:00 | 00:00:00 | |
| OM5KV | 2026-09-03 11:26:39 | 47.41018 | 19.21630 | 115° | 37km/h | 2748m | 5.1m/s | 4.3°C | 37.7% | 738.7hPa | 0V | 00:00:00 | 00:00:00 | 00:00:00 | |
| ATIDSZ-14 | 2026-09-03 11:26:32 | 47.41048 | 19.21552 | 122° | 40km/h | 2713m | 5.8m/s | 0°C | 0% | 0hPa | 0V | 00:00:00 | 00:00:00 | 00:00:00 | |
| OM5KV | 2026-09-03 11:26:29 | 47.41064 | 19.21505 | 126° | 35km/h | 2693m | 5.5m/s | 4.5°C | 37.6% | 743.5hPa | 0V | 00:00:00 | 00:00:00 | 00:00:00 | |
| OM5KV | 2026-09-03 11:26:18 | 47.41119 | 19.21371 | 131° | 33km/h | 2635m | 5.3m/s | 4.7°C | 45.1% | 748.8hPa | 0V | 00:00:00 | 00:00:00 | 00:00:00 | |
| OM5KV | 2026-09-03 11:26:16 | 47.41125 | 19.21361 | 136° | 38km/h | 2630m | 7.3m/s | 4.8°C | 44.1% | 749.4hPa | 0V | 00:00:00 | 00:00:00 | 00:00:00 | |
| OM5KV | 2026-09-03 11:26:10 | 47.41166 | 19.21282 | 127° | 37km/h | 2603m | 3.8m/s | 5.0°C | 46.4% | 752.0hPa | 0V | 00:00:00 | 00:00:00 | 00:00:00 | |
| OM5KV | 2026-09-03 11:26:05 | 47.41199 | 19.21219 | 117° | 42km/h | 2579m | 5.7m/s | 4.9°C | 56.7% | 754.4hPa | 0V | 00:00:00 | 00:00:00 | 00:00:00 | |
| OM5KV | 2026-09-03 11:25:58 | 47.41238 | 19.21136 | 128° | 44km/h | 2545m | 6.6m/s | 5.2°C | 54.1% | 757.6hPa | 0V | 00:00:00 | 00:00:00 | 00:00:00 | |
| OM5KV | 2026-09-03 11:25:53 | 47.41277 | 19.21080 | 141° | 49km/h | 2518m | 5.0m/s | 5.3°C | 58.1% | 759.7hPa | 0V | 00:00:00 | 00:00:00 | 00:00:00 | |
| OM5KV | 2026-09-03 11:25:48 | 47.41318 | 19.21023 | 142° | 46km/h | 2494m | 4.5m/s | 5.2°C | 65.6% | 762.1hPa | 0V | 00:00:00 | 00:00:00 | 00:00:00 | |
| OM5KV | 2026-09-03 11:25:40 | 47.41393 | 19.20919 | 130° | 49km/h | 2455m | 4.4m/s | 5.5°C | 67.8% | 765.6hPa | 0V | 00:00:00 | 00:00:00 | 00:00:00 | |
| OM5KV | 2026-09-03 11:25:26 | 47.41503 | 19.20762 | 133° | 29km/h | 2387m | 4.4m/s | 5.8°C | 73.4% | 771.8hPa | 0V | 00:00:00 | 00:00:00 | 00:00:00 | |
| OM5KV | 2026-09-03 11:25:22 | 47.41523 | 19.20729 | 144° | 35km/h | 2369m | 4.0m/s | 6.0°C | 71.9% | 773.6hPa | 0V | 00:00:00 | 00:00:00 | 00:00:00 | |
| OM5KV | 2026-09-03 11:25:13 | 47.41589 | 19.20637 | 139° | 46km/h | 2316m | 5.5m/s | 6.4°C | 72.8% | 778.8hPa | 0V | 00:00:00 | 00:00:00 | 00:00:00 | |
| OM5KV | 2026-09-03 11:25:01 | 47.41690 | 19.20498 | 134° | 49km/h | 2254m | 6.3m/s | 6.9°C | 71.4% | 784.7hPa | 0V | 00:00:00 | 00:00:00 | 00:00:00 | |
| OM5KV | 2026-09-03 11:25:00 | 47.41698 | 19.20485 | 134° | 49km/h | 2249m | 6.5m/s | 7.0°C | 70.7% | 785.2hPa | 0V | 00:00:00 | 00:00:00 | 00:00:00 | |
| OM5KV | 2026-09-03 11:24:57 | 47.41722 | 19.20439 | 132° | 29km/h | 2227m | 6.3m/s | 7.2°C | 70.0% | 787.4hPa | 0V | 00:00:00 | 00:00:00 | 00:00:00 | |
| OM5KV | 2026-09-03 11:24:55 | 47.41727 | 19.20431 | 139° | 33km/h | 2221m | 6.3m/s | 7.3°C | 69.4% | 787.6hPa | 0V | 00:00:00 | 00:00:00 | 00:00:00 | |
| OM5KV | 2026-09-03 11:24:30 | 47.41895 | 19.20155 | 133° | 40km/h | 2076m | 7.4m/s | 8.3°C | 73.3% | 801.7hPa | 0V | 00:00:00 | 00:00:00 | 00:00:00 | |
| OM5KV | 2026-09-03 11:24:24 | 47.41932 | 19.20096 | 126° | 35km/h | 2034m | 7.2m/s | 8.8°C | 69.6% | 805.6hPa | 0V | 00:00:00 | 00:00:00 | 00:00:00 | |
| OM5KV | 2026-09-03 11:24:23 | 47.41938 | 19.20085 | 131° | 35km/h | 2028m | 6.1m/s | 8.9°C | 69.4% | 806.2hPa | 0V | 00:00:00 | 00:00:00 | 00:00:00 | |
| OM5KV | 2026-09-03 11:24:16 | 47.41970 | 19.20020 | 121° | 33km/h | 1985m | 6.2m/s | 9.2°C | 68.9% | 810.5hPa | 0V | 00:00:00 | 00:00:00 | 00:00:00 | |
| OM5KV | 2026-09-03 11:24:09 | 47.42007 | 19.19925 | 118° | 29km/h | 1942m | 5.7m/s | 9.4°C | 75.5% | 814.5hPa | 0V | 00:00:00 | 00:00:00 | 00:00:00 | |
| OM5KV | 2026-09-03 11:24:03 | 47.42034 | 19.19855 | 113° | 29km/h | 1920m | 3.3m/s | 9.9°C | 67.8% | 816.7hPa | 0V | 00:00:00 | 00:00:00 | 00:00:00 | |
| OM5KV | 2026-09-03 11:24:00 | 47.42042 | 19.19833 | 133° | 15km/h | 1904m | 5.0m/s | 9.9°C | 70.5% | 818.5hPa | 0V | 00:00:00 | 00:00:00 | 00:00:00 | |
| OM5KV | 2026-09-03 11:23:43 | 47.42105 | 19.19709 | 122° | 26km/h | 1807m | 7.6m/s | 10.7°C | 70.2% | 827.9hPa | 0V | 00:00:00 | 00:00:00 | 00:00:00 | |
| OM5KV | 2026-09-03 11:23:36 | 47.42131 | 19.19656 | 155° | 22km/h | 1760m | 7.8m/s | 11.1°C | 0% | 832.6hPa | 0V | 00:00:00 | 00:00:00 | 00:00:00 | |
| OM5KV | 2026-09-03 11:23:33 | 47.42147 | 19.19634 | 123° | 31km/h | 1739m | 7.9m/s | 11.3°C | 69.0% | 834.5hPa | 0V | 00:00:00 | 00:00:00 | 00:00:00 | |
| OM5KV | 2026-09-03 11:23:24 | 47.42177 | 19.19565 | 119° | 16km/h | 1669m | 8.4m/s | 12.0°C | 0% | 841.7hPa | 0V | 00:00:00 | 00:00:00 | 00:00:00 | |
| OM5KV | 2026-09-03 11:23:18 | 47.42189 | 19.19516 | 105° | 31km/h | 1625m | 8.9m/s | 12.5°C | 0% | 845.9hPa | 0V | 00:00:00 | 00:00:00 | 00:00:00 | |
| OM5KV | 2026-09-03 11:23:14 | 47.42198 | 19.19468 | 111° | 26km/h | 1594m | 5.4m/s | 12.8°C | 62.5% | 849.3hPa | 0V | 00:00:00 | 00:00:00 | 00:00:00 | |
| OM5KV | 2026-09-03 11:23:09 | 47.42212 | 19.19424 | 126° | 26km/h | 1558m | 8.5m/s | 13.1°C | 61.0% | 852.9hPa | 0V | 00:00:00 | 00:00:00 | 00:00:00 | |
| OM5KV | 2026-09-03 11:23:04 | 47.42235 | 19.19384 | 113° | 35km/h | 1526m | 9.3m/s | 13.5°C | 0% | 856.2hPa | 0V | 00:00:00 | 00:00:00 | 00:00:00 | |
| OM5KV | 2026-09-03 11:23:01 | 47.42250 | 19.19329 | 127° | 37km/h | 1499m | 7.6m/s | 13.7°C | 0% | 858.9hPa | 0V | 00:00:00 | 00:00:00 | 00:00:00 | |
| OM5KV | 2026-09-03 11:22:54 | 47.42267 | 19.19270 | 125° | 31km/h | 1459m | 4.1m/s | 0°C | 0% | 862.8hPa | 0V | 00:00:00 | 00:00:00 | 00:00:00 | |
| OM5KV | 2026-09-03 11:22:53 | 47.42272 | 19.19261 | 133° | 29km/h | 1454m | 7.0m/s | 0°C | 0% | 863.2hPa | 0V | 00:00:00 | 00:00:00 | 00:00:00 | |
| OM5KV | 2026-09-03 11:22:48 | 47.42289 | 19.19219 | 100° | 37km/h | 1423m | 9.0m/s | 0°C | 0% | 866.5hPa | 0V | 00:00:00 | 00:00:00 | 00:00:00 | |
| OM5KV | 2026-09-03 11:22:38 | 47.42312 | 19.19125 | 99° | 20km/h | 1356m | 4.2m/s | 0°C | 0% | 0hPa | 0V | 00:00:00 | 00:00:00 | 00:00:00 | |
| OM5KV | 2026-09-03 11:22:33 | 47.42321 | 19.19096 | 118° | 16km/h | 1321m | 7.7m/s | 0°C | 0% | 0hPa | 0V | 00:00:00 | 00:00:00 | 00:00:00 | |
| OM5KV | 2026-09-03 11:22:32 | 47.42323 | 19.19089 | 95° | 24km/h | 1315m | 6.0m/s | 0°C | 0% | 0hPa | 0V | 00:00:00 | 00:00:00 | 00:00:00 | |
| OM5KV | 2026-09-03 11:22:26 | 47.42325 | 19.19044 | 103° | 27km/h | 1276m | 5.4m/s | 0°C | 0% | 0hPa | 0V | 00:00:00 | 00:00:00 | 00:00:00 | |
| OM5KV | 2026-09-03 11:22:25 | 47.42327 | 19.19034 | 119° | 31km/h | 1270m | 8.5m/s | 0°C | 0% | 0hPa | 0V | 00:00:00 | 00:00:00 | 00:00:00 | |
| OM5KV | 2026-09-03 11:22:20 | 47.42347 | 19.19006 | 104° | 20km/h | 1234m | 7.7m/s | 0°C | 0% | 0hPa | 0V | 00:00:00 | 00:00:00 | 00:00:00 | |
| OM5KV | 2026-09-03 11:22:20 | 47.42348 | 19.18999 | 92° | 20km/h | 1227m | 6.3m/s | 0°C | 0% | 0hPa | 0V | 00:00:00 | 00:00:00 | 00:00:00 | |
| OM5KV | 2026-09-03 11:22:12 | 47.42360 | 19.18960 | 75° | 26km/h | 1171m | 10.7m/s | 0°C | 0% | 0hPa | 0V | 00:00:00 | 00:00:00 | 00:00:00 |